UAE16M UUDD-OMDB
Flight info
| Callsign | UAE16M |
|---|---|
| Flight time | 6h 31m |
| Altitude | 35000 |
| Route | TOGMO4Q TOGMO M56 DENUD DCT AKB DCT ARL DCT NVI/K0876F370 DCT HNB/N0473F370 DCT AMS DCT BGM DCT KBL DCT ZB/N0475F380 DCT QT DCT PG DCT TU DCT GW DCT ATOSO DCT APELO DCT VEKAN DCT DERTO DCT KUSTO DCT ENEGI DCT KIRUM |
| Aircraft | B77W/H-SDE2E3FGHIJ3J5M1P2RWXYZ/LB1D1 |
Departure
| Time | 2026-04-25 20:00 |
|---|---|
| Airport | Domodedovo International Airport (UUDD) |
Arrival
| Time | 2026-04-26 02:31 |
|---|---|
| Airport | Dubai International Airport (OMDB) |
| Time | Latitude | Longitude | Altitude | Speed | Heading |
|---|---|---|---|---|---|
| 2026-04-25 17:27 | 55.41458 | 37.90823 | 581 ft | 0 kts | 1° |
| 2026-04-25 19:45 | 55.41454 | 37.90822 | 581 ft | 3 kts | 1° |
| 2026-04-25 19:45 | 55.41428 | 37.90826 | 582 ft | 4 kts | 344° |
| 2026-04-25 19:46 | 55.41403 | 37.90845 | 582 ft | 4 kts | 322° |
| 2026-04-25 19:46 | 55.41387 | 37.90878 | 582 ft | 4 kts | 284° |
| 2026-04-25 19:46 | 55.41390 | 37.90914 | 578 ft | 4 kts | 237° |
| 2026-04-25 19:46 | 55.41405 | 37.90954 | 580 ft | 4 kts | 237° |
| 2026-04-25 19:47 | 55.41418 | 37.90990 | 578 ft | 2 kts | 237° |
| 2026-04-25 19:47 | 55.41418 | 37.90992 | 578 ft | 0 kts | 237° |
| 2026-04-25 19:50 | 55.41404 | 37.90953 | 582 ft | 6 kts | 236° |
| 2026-04-25 19:50 | 55.41370 | 37.90897 | 582 ft | 7 kts | 201° |
| 2026-04-25 19:50 | 55.41316 | 37.90918 | 575 ft | 9 kts | 158° |
| 2026-04-25 19:51 | 55.41256 | 37.90893 | 580 ft | 10 kts | 222° |
| 2026-04-25 19:51 | 55.41215 | 37.90799 | 581 ft | 10 kts | 235° |
| 2026-04-25 19:51 | 55.41169 | 37.90681 | 577 ft | 13 kts | 236° |
| 2026-04-25 19:51 | 55.41119 | 37.90551 | 579 ft | 13 kts | 236° |
| 2026-04-25 19:52 | 55.41069 | 37.90422 | 575 ft | 13 kts | 236° |
| 2026-04-25 19:52 | 55.41036 | 37.90281 | 577 ft | 13 kts | 268° |
| 2026-04-25 19:52 | 55.41006 | 37.90135 | 577 ft | 13 kts | 238° |
| 2026-04-25 19:52 | 55.40956 | 37.90003 | 580 ft | 13 kts | 236° |
| 2026-04-25 19:53 | 55.40900 | 37.89858 | 580 ft | 15 kts | 236° |
| 2026-04-25 19:53 | 55.40843 | 37.89710 | 576 ft | 15 kts | 236° |
| 2026-04-25 19:53 | 55.40769 | 37.89586 | 577 ft | 15 kts | 219° |
| 2026-04-25 19:53 | 55.40704 | 37.89447 | 579 ft | 14 kts | 235° |
| 2026-04-25 19:54 | 55.40686 | 37.89325 | 579 ft | 10 kts | 289° |
| 2026-04-25 19:54 | 55.40737 | 37.89231 | 578 ft | 11 kts | 322° |
| 2026-04-25 19:54 | 55.40803 | 37.89148 | 582 ft | 12 kts | 325° |
| 2026-04-25 19:54 | 55.40828 | 37.89118 | 584 ft | 13 kts | 326° |
| 2026-04-25 19:55 | 55.40981 | 37.88934 | 585 ft | 17 kts | 326° |
| 2026-04-25 19:55 | 55.41081 | 37.88814 | 585 ft | 17 kts | 325° |
| 2026-04-25 19:55 | 55.41180 | 37.88695 | 589 ft | 17 kts | 326° |
| 2026-04-25 19:55 | 55.41279 | 37.88575 | 588 ft | 17 kts | 325° |
| 2026-04-25 19:56 | 55.41379 | 37.88455 | 586 ft | 17 kts | 326° |
| 2026-04-25 19:56 | 55.41479 | 37.88335 | 589 ft | 17 kts | 326° |
| 2026-04-25 19:56 | 55.41578 | 37.88216 | 592 ft | 17 kts | 326° |
| 2026-04-25 19:56 | 55.41677 | 37.88096 | 587 ft | 17 kts | 326° |
| 2026-04-25 19:57 | 55.41777 | 37.87976 | 588 ft | 17 kts | 326° |
| 2026-04-25 19:57 | 55.41877 | 37.87857 | 594 ft | 17 kts | 326° |
| 2026-04-25 19:57 | 55.41977 | 37.87737 | 599 ft | 17 kts | 326° |
| 2026-04-25 19:57 | 55.42073 | 37.87621 | 603 ft | 14 kts | 326° |
| 2026-04-25 19:58 | 55.42151 | 37.87526 | 603 ft | 11 kts | 324° |
| 2026-04-25 19:58 | 55.42171 | 37.87419 | 603 ft | 9 kts | 253° |
| 2026-04-25 19:58 | 55.42136 | 37.87318 | 601 ft | 10 kts | 236° |
| 2026-04-25 19:58 | 55.42087 | 37.87253 | 600 ft | 9 kts | 184° |
| 2026-04-25 19:59 | 55.42036 | 37.87303 | 600 ft | 14 kts | 145° |
| 2026-04-25 19:59 | 55.41839 | 37.87542 | 598 ft | 68 kts | 146° |
| 2026-04-25 19:59 | 55.41244 | 37.88259 | 590 ft | 137 kts | 146° |
| 2026-04-25 19:59 | 55.40302 | 37.89388 | 645 ft | 182 kts | 146° |
| 2026-04-25 20:00 | 55.39289 | 37.90610 | 1324 ft | 178 kts | 147° |
| 2026-04-25 20:00 | 55.38941 | 37.91024 | 1551 ft | 179 kts | 148° |
| 2026-04-25 20:00 | 55.37154 | 37.93100 | 2275 ft | 201 kts | 153° |
| 2026-04-25 20:00 | 55.35904 | 37.94499 | 2514 ft | 225 kts | 153° |
| 2026-04-25 20:01 | 55.33053 | 37.97701 | 3445 ft | 256 kts | 152° |
| 2026-04-25 20:01 | 55.31539 | 37.99425 | 4165 ft | 262 kts | 152° |
| 2026-04-25 20:01 | 55.29996 | 38.01184 | 4947 ft | 266 kts | 152° |
| 2026-04-25 20:02 | 55.28962 | 38.02362 | 5432 ft | 269 kts | 152° |
| 2026-04-25 20:02 | 55.27365 | 38.04176 | 6086 ft | 277 kts | 152° |
| 2026-04-25 20:02 | 55.25733 | 38.06032 | 6780 ft | 281 kts | 152° |
| 2026-04-25 20:02 | 55.24084 | 38.07913 | 7512 ft | 284 kts | 152° |
| 2026-04-25 20:03 | 55.22413 | 38.09814 | 8225 ft | 289 kts | 151° |
| 2026-04-25 20:03 | 55.20711 | 38.11746 | 8919 ft | 293 kts | 151° |
| 2026-04-25 20:03 | 55.18983 | 38.13706 | 9645 ft | 296 kts | 151° |
| 2026-04-25 20:03 | 55.17268 | 38.15649 | 10299 ft | 300 kts | 151° |
| 2026-04-25 20:04 | 55.15434 | 38.17719 | 10616 ft | 321 kts | 151° |
| 2026-04-25 20:04 | 55.13509 | 38.19885 | 10832 ft | 344 kts | 151° |
| 2026-04-25 20:04 | 55.11416 | 38.22239 | 11036 ft | 369 kts | 150° |
| 2026-04-25 20:04 | 55.09214 | 38.24720 | 11589 ft | 382 kts | 150° |
| 2026-04-25 20:05 | 55.06961 | 38.27263 | 12408 ft | 389 kts | 150° |
| 2026-04-25 20:05 | 55.04699 | 38.29816 | 13319 ft | 394 kts | 150° |
| 2026-04-25 20:05 | 55.02386 | 38.32421 | 14157 ft | 397 kts | 150° |
| 2026-04-25 20:05 | 55.00049 | 38.35048 | 14999 ft | 402 kts | 151° |
| 2026-04-25 20:06 | 54.97670 | 38.37715 | 15801 ft | 408 kts | 151° |
| 2026-04-25 20:06 | 54.95261 | 38.40409 | 16572 ft | 414 kts | 152° |
| 2026-04-25 20:06 | 54.92823 | 38.43132 | 17346 ft | 419 kts | 152° |
| 2026-04-25 20:06 | 54.90373 | 38.45865 | 18096 ft | 425 kts | 152° |
| 2026-04-25 20:07 | 54.87863 | 38.48660 | 18761 ft | 431 kts | 152° |
| 2026-04-25 20:07 | 54.85315 | 38.51494 | 19359 ft | 437 kts | 152° |
| 2026-04-25 20:07 | 54.82732 | 38.54361 | 19958 ft | 444 kts | 152° |
| 2026-04-25 20:07 | 54.80105 | 38.57273 | 20561 ft | 450 kts | 152° |
| 2026-04-25 20:08 | 54.77479 | 38.60180 | 21184 ft | 455 kts | 152° |
| 2026-04-25 20:08 | 54.74793 | 38.63150 | 21820 ft | 460 kts | 152° |
| 2026-04-25 20:08 | 54.72069 | 38.66157 | 22403 ft | 466 kts | 152° |
| 2026-04-25 20:08 | 54.69315 | 38.69191 | 22967 ft | 472 kts | 152° |
| 2026-04-25 20:09 | 54.66520 | 38.72266 | 23494 ft | 478 kts | 152° |
| 2026-04-25 20:09 | 54.63693 | 38.75371 | 23920 ft | 483 kts | 152° |
| 2026-04-25 20:09 | 54.60864 | 38.78472 | 24281 ft | 491 kts | 152° |
| 2026-04-25 20:09 | 54.57951 | 38.81661 | 24734 ft | 496 kts | 152° |
| 2026-04-25 20:10 | 54.55024 | 38.84862 | 25219 ft | 500 kts | 152° |
| 2026-04-25 20:10 | 54.52062 | 38.88095 | 25703 ft | 503 kts | 152° |
| 2026-04-25 20:10 | 54.49094 | 38.91331 | 26183 ft | 507 kts | 152° |
| 2026-04-25 20:10 | 54.46095 | 38.94592 | 26605 ft | 512 kts | 152° |
| 2026-04-25 20:11 | 54.43116 | 38.97876 | 26957 ft | 517 kts | 148° |
| 2026-04-25 20:11 | 54.40334 | 39.01913 | 27280 ft | 529 kts | 135° |
| 2026-04-25 20:11 | 54.38010 | 39.06850 | 27679 ft | 535 kts | 124° |
| 2026-04-25 20:11 | 54.36191 | 39.12450 | 28091 ft | 538 kts | 112° |
| 2026-04-25 20:12 | 54.34878 | 39.18502 | 28497 ft | 541 kts | 108° |
| 2026-04-25 20:12 | 54.33576 | 39.24562 | 28946 ft | 542 kts | 110° |
| 2026-04-25 20:12 | 54.32187 | 39.30502 | 29472 ft | 541 kts | 111° |
| 2026-04-25 20:12 | 54.31233 | 39.34437 | 29829 ft | 541 kts | 112° |
| 2026-04-25 20:13 | 54.29269 | 39.42398 | 30474 ft | 539 kts | 112° |
| 2026-04-25 20:13 | 54.27810 | 39.48296 | 31031 ft | 535 kts | 112° |
| 2026-04-25 20:13 | 54.26388 | 39.54061 | 31595 ft | 531 kts | 113° |
| 2026-04-25 20:13 | 54.24962 | 39.59865 | 32139 ft | 528 kts | 113° |
| 2026-04-25 20:14 | 54.23546 | 39.65639 | 32642 ft | 525 kts | 113° |
| 2026-04-25 20:14 | 54.22135 | 39.71387 | 33106 ft | 523 kts | 114° |
| 2026-04-25 20:14 | 54.20721 | 39.77135 | 33571 ft | 521 kts | 114° |
| 2026-04-25 20:14 | 54.19315 | 39.82829 | 33962 ft | 519 kts | 114° |
| 2026-04-25 20:15 | 54.17909 | 39.88505 | 34276 ft | 519 kts | 114° |
| 2026-04-25 20:15 | 54.16500 | 39.94178 | 34541 ft | 519 kts | 114° |
| 2026-04-25 20:15 | 54.15084 | 39.99864 | 34672 ft | 523 kts | 114° |
| 2026-04-25 20:15 | 54.13656 | 40.05586 | 34739 ft | 525 kts | 114° |
| 2026-04-25 20:16 | 54.11004 | 40.17041 | 34714 ft | 520 kts | 108° |
| 2026-04-25 20:16 | 54.08993 | 40.28817 | 34734 ft | 516 kts | 107° |
| 2026-04-25 20:17 | 54.06994 | 40.40547 | 34757 ft | 515 kts | 107° |
| 2026-04-25 20:17 | 54.04944 | 40.52276 | 34744 ft | 516 kts | 108° |
| 2026-04-25 20:18 | 54.02880 | 40.63909 | 34748 ft | 517 kts | 108° |
| 2026-04-25 20:18 | 54.00782 | 40.75671 | 34759 ft | 518 kts | 108° |
| 2026-04-25 20:19 | 53.98692 | 40.87331 | 34756 ft | 518 kts | 108° |
| 2026-04-25 20:19 | 53.96580 | 40.99047 | 34761 ft | 519 kts | 108° |
| 2026-04-25 20:20 | 53.94506 | 41.10812 | 34761 ft | 519 kts | 106° |
| 2026-04-25 20:20 | 53.92602 | 41.22658 | 34756 ft | 519 kts | 105° |
| 2026-04-25 20:21 | 53.90711 | 41.34410 | 34771 ft | 518 kts | 106° |
| 2026-04-25 20:21 | 53.88769 | 41.46201 | 34778 ft | 518 kts | 106° |
| 2026-04-25 20:22 | 53.87471 | 41.53999 | 34790 ft | 518 kts | 106° |
| 2026-04-25 20:22 | 53.84852 | 41.69644 | 34777 ft | 517 kts | 107° |
| 2026-04-25 20:23 | 53.82879 | 41.81306 | 34782 ft | 516 kts | 107° |
| 2026-04-25 20:23 | 53.80864 | 41.92993 | 34791 ft | 516 kts | 107° |
| 2026-04-25 20:24 | 53.78850 | 42.04598 | 34788 ft | 516 kts | 107° |
| 2026-04-25 20:24 | 53.76820 | 42.16239 | 34796 ft | 515 kts | 107° |
| 2026-04-25 20:25 | 53.74782 | 42.27867 | 34791 ft | 515 kts | 107° |
| 2026-04-25 20:25 | 53.72744 | 42.39416 | 34798 ft | 515 kts | 107° |
| 2026-04-25 20:26 | 53.70682 | 42.51027 | 34799 ft | 515 kts | 107° |
| 2026-04-25 20:26 | 53.68625 | 42.62551 | 34802 ft | 515 kts | 107° |
| 2026-04-25 20:27 | 53.66597 | 42.74165 | 34805 ft | 515 kts | 105° |
| 2026-04-25 20:27 | 53.64782 | 42.85872 | 34794 ft | 515 kts | 105° |
| 2026-04-25 20:28 | 53.62996 | 42.97517 | 34809 ft | 515 kts | 105° |
| 2026-04-25 20:28 | 53.61153 | 43.09205 | 34809 ft | 516 kts | 105° |
| 2026-04-25 20:29 | 53.59277 | 43.20895 | 34809 ft | 516 kts | 105° |
| 2026-04-25 20:29 | 53.57402 | 43.32491 | 34806 ft | 516 kts | 105° |
| 2026-04-25 20:30 | 53.55505 | 43.44157 | 34805 ft | 516 kts | 105° |
| 2026-04-25 20:30 | 53.53596 | 43.55823 | 34811 ft | 516 kts | 106° |
| 2026-04-25 20:31 | 53.51689 | 43.67405 | 34814 ft | 516 kts | 106° |
| 2026-04-25 20:31 | 53.49758 | 43.79055 | 34814 ft | 516 kts | 106° |
| 2026-04-25 20:32 | 53.48145 | 43.88725 | 34812 ft | 516 kts | 106° |
| 2026-04-25 20:32 | 53.45870 | 44.02207 | 34815 ft | 516 kts | 107° |
| 2026-04-25 20:33 | 53.43899 | 44.13798 | 34805 ft | 516 kts | 107° |
| 2026-04-25 20:33 | 53.42252 | 44.23437 | 34809 ft | 516 kts | 107° |
| 2026-04-25 20:34 | 53.39925 | 44.36972 | 34810 ft | 516 kts | 107° |
| 2026-04-25 20:34 | 53.37939 | 44.48456 | 34801 ft | 516 kts | 107° |
| 2026-04-25 20:35 | 53.35928 | 44.60017 | 34809 ft | 516 kts | 107° |
| 2026-04-25 20:35 | 53.33926 | 44.71568 | 34812 ft | 516 kts | 107° |
| 2026-04-25 20:36 | 53.31924 | 44.83066 | 34812 ft | 516 kts | 107° |
| 2026-04-25 20:36 | 53.29902 | 44.94596 | 34810 ft | 517 kts | 107° |
| 2026-04-25 20:37 | 53.27860 | 45.06137 | 34812 ft | 517 kts | 108° |
| 2026-04-25 20:37 | 53.25502 | 45.17414 | 34824 ft | 517 kts | 111° |
| 2026-04-25 20:38 | 53.23000 | 45.28706 | 34819 ft | 517 kts | 111° |
| 2026-04-25 20:38 | 53.20511 | 45.39978 | 34810 ft | 517 kts | 111° |
| 2026-04-25 20:39 | 53.18053 | 45.51165 | 34806 ft | 517 kts | 111° |
| 2026-04-25 20:39 | 53.16392 | 45.58699 | 34813 ft | 517 kts | 111° |
| 2026-04-25 20:40 | 53.13064 | 45.73704 | 34821 ft | 517 kts | 111° |
| 2026-04-25 20:40 | 53.10568 | 45.84884 | 34817 ft | 517 kts | 111° |
| 2026-04-25 20:41 | 53.08072 | 45.96119 | 34814 ft | 517 kts | 111° |
| 2026-04-25 20:41 | 53.05591 | 46.07291 | 34825 ft | 517 kts | 111° |
| 2026-04-25 20:42 | 53.03080 | 46.18525 | 34830 ft | 517 kts | 111° |
| 2026-04-25 20:42 | 53.00554 | 46.29755 | 34837 ft | 518 kts | 111° |
| 2026-04-25 20:43 | 52.98037 | 46.40891 | 34850 ft | 518 kts | 112° |
| 2026-04-25 20:43 | 52.95483 | 46.52103 | 34832 ft | 519 kts | 112° |
| 2026-04-25 20:44 | 52.92917 | 46.63235 | 34841 ft | 519 kts | 112° |
| 2026-04-25 20:44 | 52.90332 | 46.74397 | 34841 ft | 519 kts | 112° |
| 2026-04-25 20:45 | 52.87733 | 46.85577 | 34849 ft | 519 kts | 112° |
| 2026-04-25 20:45 | 52.85129 | 46.96726 | 34839 ft | 519 kts | 112° |
| 2026-04-25 20:46 | 52.82526 | 47.07819 | 34854 ft | 519 kts | 112° |
| 2026-04-25 20:46 | 52.79991 | 47.19029 | 34855 ft | 520 kts | 110° |
| 2026-04-25 20:47 | 52.77648 | 47.30344 | 34859 ft | 520 kts | 110° |
| 2026-04-25 20:47 | 52.75684 | 47.39729 | 34856 ft | 520 kts | 110° |
| 2026-04-25 20:48 | 52.72881 | 47.52820 | 34859 ft | 519 kts | 110° |
| 2026-04-25 20:48 | 52.70865 | 47.62163 | 34886 ft | 519 kts | 111° |
| 2026-04-25 20:49 | 52.68425 | 47.73405 | 34873 ft | 519 kts | 111° |
| 2026-04-25 20:49 | 52.65974 | 47.84641 | 34871 ft | 519 kts | 111° |
| 2026-04-25 20:50 | 52.63539 | 47.95759 | 34851 ft | 518 kts | 111° |
| 2026-04-25 20:50 | 52.61082 | 48.06921 | 34874 ft | 518 kts | 111° |
| 2026-04-25 20:51 | 52.58622 | 48.17993 | 34877 ft | 517 kts | 111° |
| 2026-04-25 20:51 | 52.56132 | 48.29103 | 34885 ft | 517 kts | 111° |
| 2026-04-25 20:52 | 52.54057 | 48.38325 | 34881 ft | 517 kts | 111° |
| 2026-04-25 20:52 | 52.51128 | 48.51287 | 34884 ft | 517 kts | 112° |
| 2026-04-25 20:53 | 52.48631 | 48.62278 | 34897 ft | 517 kts | 112° |
| 2026-04-25 20:53 | 52.46104 | 48.73342 | 34897 ft | 517 kts | 112° |
| 2026-04-25 20:54 | 52.43568 | 48.84387 | 34908 ft | 517 kts | 112° |
| 2026-04-25 20:54 | 52.41037 | 48.95356 | 34890 ft | 518 kts | 112° |
| 2026-04-25 20:55 | 52.38472 | 49.06423 | 34907 ft | 518 kts | 112° |
| 2026-04-25 20:55 | 52.35900 | 49.17453 | 34911 ft | 518 kts | 112° |
| 2026-04-25 20:56 | 52.33327 | 49.28448 | 34902 ft | 519 kts | 112° |
| 2026-04-25 20:56 | 52.30752 | 49.39415 | 34900 ft | 519 kts | 112° |
| 2026-04-25 20:57 | 52.28148 | 49.50428 | 34904 ft | 519 kts | 112° |
| 2026-04-25 20:57 | 52.25522 | 49.61437 | 34911 ft | 519 kts | 113° |
| 2026-04-25 20:58 | 52.22888 | 49.72433 | 34900 ft | 519 kts | 113° |
| 2026-04-25 20:58 | 52.20263 | 49.83342 | 34909 ft | 520 kts | 113° |
| 2026-04-25 20:59 | 52.17611 | 49.94315 | 34913 ft | 520 kts | 113° |
| 2026-04-25 20:59 | 52.14953 | 50.05258 | 34908 ft | 520 kts | 113° |
| 2026-04-25 21:00 | 52.12729 | 50.14370 | 34904 ft | 520 kts | 113° |
| 2026-04-25 21:01 | 52.08259 | 50.32574 | 34907 ft | 520 kts | 113° |
| 2026-04-25 21:01 | 52.05559 | 50.43495 | 34899 ft | 520 kts | 113° |
| 2026-04-25 21:02 | 52.02860 | 50.54358 | 34899 ft | 520 kts | 113° |
| 2026-04-25 21:02 | 52.00145 | 50.65235 | 34902 ft | 521 kts | 113° |
| 2026-04-25 21:03 | 51.97412 | 50.76132 | 34901 ft | 521 kts | 113° |
| 2026-04-25 21:03 | 51.94659 | 50.87063 | 34898 ft | 521 kts | 113° |
| 2026-04-25 21:04 | 51.92048 | 50.97973 | 34921 ft | 522 kts | 111° |
| 2026-04-25 21:04 | 51.89513 | 51.09040 | 34908 ft | 523 kts | 111° |
| 2026-04-25 21:05 | 51.86981 | 51.20021 | 34908 ft | 523 kts | 111° |
| 2026-04-25 21:05 | 51.84399 | 51.31044 | 34908 ft | 523 kts | 111° |
| 2026-04-25 21:06 | 51.81794 | 51.42056 | 34906 ft | 523 kts | 111° |
| 2026-04-25 21:06 | 51.79184 | 51.53033 | 34915 ft | 523 kts | 111° |
| 2026-04-25 21:07 | 51.76577 | 51.63951 | 34914 ft | 523 kts | 112° |
| 2026-04-25 21:07 | 51.73939 | 51.74940 | 34919 ft | 523 kts | 112° |
| 2026-04-25 21:08 | 51.71296 | 51.85902 | 34902 ft | 523 kts | 112° |
| 2026-04-25 21:08 | 51.68668 | 51.96746 | 34917 ft | 523 kts | 112° |
| 2026-04-25 21:09 | 51.64669 | 52.13143 | 34929 ft | 523 kts | 112° |
| 2026-04-25 21:09 | 51.61992 | 52.24048 | 34928 ft | 524 kts | 112° |
| 2026-04-25 21:10 | 51.59321 | 52.34881 | 34922 ft | 524 kts | 112° |
| 2026-04-25 21:10 | 51.56619 | 52.45783 | 34930 ft | 524 kts | 112° |
| 2026-04-25 21:11 | 51.53905 | 52.56678 | 34931 ft | 525 kts | 112° |
| 2026-04-25 21:11 | 51.51184 | 52.67552 | 34941 ft | 525 kts | 112° |
| 2026-04-25 21:12 | 51.48448 | 52.78430 | 34924 ft | 525 kts | 112° |
| 2026-04-25 21:12 | 51.46168 | 52.87453 | 34937 ft | 525 kts | 112° |
| 2026-04-25 21:13 | 51.42968 | 53.00058 | 34968 ft | 524 kts | 112° |
| 2026-04-25 21:13 | 51.40205 | 53.10886 | 34958 ft | 524 kts | 112° |
| 2026-04-25 21:14 | 51.37431 | 53.21705 | 34948 ft | 523 kts | 112° |
| 2026-04-25 21:14 | 51.34673 | 53.32409 | 34950 ft | 522 kts | 112° |
| 2026-04-25 21:15 | 51.31896 | 53.43138 | 34957 ft | 521 kts | 112° |
| 2026-04-25 21:15 | 51.29112 | 53.53842 | 34956 ft | 520 kts | 112° |
| 2026-04-25 21:16 | 51.26339 | 53.64453 | 34962 ft | 520 kts | 112° |
| 2026-04-25 21:16 | 51.23538 | 53.75121 | 34955 ft | 520 kts | 113° |
| 2026-04-25 21:17 | 51.20746 | 53.85708 | 34959 ft | 520 kts | 113° |
| 2026-04-25 21:17 | 51.17919 | 53.96375 | 34960 ft | 521 kts | 113° |
| 2026-04-25 21:18 | 51.15087 | 54.07012 | 34965 ft | 521 kts | 113° |
| 2026-04-25 21:18 | 51.12251 | 54.17618 | 34956 ft | 522 kts | 113° |
| 2026-04-25 21:19 | 51.09392 | 54.28257 | 34969 ft | 522 kts | 113° |
| 2026-04-25 21:19 | 51.06533 | 54.38847 | 34958 ft | 523 kts | 113° |
| 2026-04-25 21:20 | 51.04625 | 54.45889 | 34977 ft | 523 kts | 113° |
| 2026-04-25 21:20 | 51.00772 | 54.60045 | 34980 ft | 523 kts | 114° |
| 2026-04-25 21:21 | 50.97862 | 54.70678 | 34968 ft | 524 kts | 114° |
| 2026-04-25 21:21 | 50.94968 | 54.81207 | 34968 ft | 523 kts | 114° |
| 2026-04-25 21:22 | 50.92041 | 54.91803 | 34989 ft | 523 kts | 114° |
| 2026-04-25 21:22 | 50.89106 | 55.02383 | 34973 ft | 523 kts | 114° |
| 2026-04-25 21:23 | 50.86183 | 55.12874 | 34966 ft | 523 kts | 114° |
| 2026-04-25 21:23 | 50.83227 | 55.23435 | 34972 ft | 522 kts | 114° |
| 2026-04-25 21:24 | 50.80295 | 55.33864 | 34973 ft | 522 kts | 114° |
| 2026-04-25 21:24 | 50.77325 | 55.44381 | 34976 ft | 522 kts | 114° |
| 2026-04-25 21:25 | 50.74346 | 55.54881 | 34964 ft | 523 kts | 115° |
| 2026-04-25 21:25 | 50.71381 | 55.65286 | 34986 ft | 523 kts | 115° |
| 2026-04-25 21:26 | 50.68382 | 55.75767 | 34977 ft | 523 kts | 115° |
| 2026-04-25 21:26 | 50.65392 | 55.86169 | 34981 ft | 523 kts | 115° |
| 2026-04-25 21:27 | 50.62367 | 55.96642 | 34973 ft | 523 kts | 116° |
| 2026-04-25 21:27 | 50.59349 | 56.07059 | 34970 ft | 522 kts | 116° |
| 2026-04-25 21:28 | 50.56344 | 56.17385 | 34975 ft | 521 kts | 116° |
| 2026-04-25 21:28 | 50.53316 | 56.27732 | 34976 ft | 520 kts | 116° |
| 2026-04-25 21:29 | 50.50281 | 56.38062 | 34982 ft | 519 kts | 116° |
| 2026-04-25 21:29 | 50.47250 | 56.48334 | 34970 ft | 519 kts | 116° |
| 2026-04-25 21:30 | 50.44223 | 56.58552 | 34970 ft | 518 kts | 116° |
| 2026-04-25 21:30 | 50.41684 | 56.67091 | 34979 ft | 518 kts | 117° |
| 2026-04-25 21:31 | 50.38121 | 56.79021 | 34980 ft | 519 kts | 117° |
| 2026-04-25 21:31 | 50.35051 | 56.89260 | 34975 ft | 518 kts | 118° |
| 2026-04-25 21:32 | 50.32495 | 56.97748 | 34969 ft | 517 kts | 118° |
| 2026-04-25 21:32 | 50.29420 | 57.07923 | 34974 ft | 516 kts | 118° |
| 2026-04-25 21:33 | 50.25829 | 57.17554 | 34975 ft | 509 kts | 130° |
| 2026-04-25 21:33 | 50.21122 | 57.25745 | 34948 ft | 502 kts | 142° |
| 2026-04-25 21:34 | 50.15947 | 57.32937 | 34958 ft | 501 kts | 142° |
| 2026-04-25 21:34 | 50.10726 | 57.40171 | 34975 ft | 500 kts | 142° |
| 2026-04-25 21:35 | 50.05538 | 57.47409 | 34973 ft | 501 kts | 142° |
| 2026-04-25 21:35 | 50.00381 | 57.54622 | 34969 ft | 500 kts | 142° |
| 2026-04-25 21:36 | 49.95199 | 57.61856 | 34981 ft | 500 kts | 142° |
| 2026-04-25 21:36 | 49.90017 | 57.69064 | 34981 ft | 500 kts | 142° |
| 2026-04-25 21:37 | 49.85696 | 57.75056 | 34987 ft | 500 kts | 142° |
| 2026-04-25 21:37 | 49.79662 | 57.83399 | 34978 ft | 499 kts | 143° |
| 2026-04-25 21:38 | 49.74486 | 57.90532 | 34977 ft | 499 kts | 143° |
| 2026-04-25 21:38 | 49.69291 | 57.97669 | 34997 ft | 498 kts | 143° |
| 2026-04-25 21:39 | 49.64135 | 58.04733 | 34987 ft | 498 kts | 143° |
| 2026-04-25 21:39 | 49.58933 | 58.11838 | 34988 ft | 497 kts | 143° |
| 2026-04-25 21:40 | 49.53780 | 58.18855 | 34989 ft | 497 kts | 143° |
| 2026-04-25 21:40 | 49.48590 | 58.25902 | 34992 ft | 497 kts | 143° |
| 2026-04-25 21:41 | 49.43391 | 58.32940 | 34996 ft | 497 kts | 143° |
| 2026-04-25 21:41 | 49.38228 | 58.39910 | 34994 ft | 497 kts | 143° |
| 2026-04-25 21:42 | 49.33019 | 58.46920 | 34996 ft | 497 kts | 143° |
| 2026-04-25 21:42 | 49.27837 | 58.53874 | 34985 ft | 497 kts | 144° |
| 2026-04-25 21:43 | 49.22629 | 58.60844 | 34996 ft | 497 kts | 144° |
| 2026-04-25 21:43 | 49.17418 | 58.67797 | 34996 ft | 497 kts | 144° |
| 2026-04-25 21:44 | 49.12226 | 58.74704 | 34999 ft | 496 kts | 144° |
| 2026-04-25 21:45 | 49.04434 | 58.85034 | 35000 ft | 495 kts | 144° |
| 2026-04-25 21:45 | 48.99221 | 58.91918 | 35001 ft | 494 kts | 144° |
| 2026-04-25 21:46 | 48.94047 | 58.98732 | 34999 ft | 494 kts | 144° |
| 2026-04-25 21:46 | 48.88821 | 59.05596 | 34993 ft | 493 kts | 144° |
| 2026-04-25 21:47 | 48.83656 | 59.12359 | 34998 ft | 492 kts | 145° |
| 2026-04-25 21:47 | 48.78457 | 59.19147 | 34996 ft | 492 kts | 145° |
| 2026-04-25 21:48 | 48.73263 | 59.25910 | 34990 ft | 491 kts | 145° |
| 2026-04-25 21:48 | 48.68101 | 59.32614 | 34993 ft | 491 kts | 145° |
| 2026-04-25 21:49 | 48.62894 | 59.39355 | 34995 ft | 491 kts | 145° |
| 2026-04-25 21:49 | 48.57733 | 59.46019 | 34996 ft | 491 kts | 145° |
| 2026-04-25 21:50 | 48.52546 | 59.52699 | 34991 ft | 490 kts | 146° |
| 2026-04-25 21:50 | 48.47357 | 59.59361 | 35008 ft | 489 kts | 146° |
| 2026-04-25 21:51 | 48.42200 | 59.65964 | 34985 ft | 488 kts | 146° |
| 2026-04-25 21:51 | 48.37021 | 59.72577 | 34977 ft | 488 kts | 146° |
| 2026-04-25 21:52 | 48.31839 | 59.79176 | 34983 ft | 487 kts | 146° |
| 2026-04-25 21:52 | 48.26684 | 59.85723 | 34986 ft | 487 kts | 146° |
| 2026-04-25 21:53 | 48.21504 | 59.92282 | 34987 ft | 487 kts | 146° |
| 2026-04-25 21:53 | 48.16314 | 59.98837 | 34980 ft | 486 kts | 147° |
| 2026-04-25 21:54 | 48.11174 | 60.05309 | 34987 ft | 486 kts | 147° |
| 2026-04-25 21:54 | 48.05984 | 60.11828 | 34989 ft | 486 kts | 147° |
| 2026-04-25 21:55 | 48.00799 | 60.18324 | 34971 ft | 485 kts | 147° |
| 2026-04-25 21:55 | 47.95645 | 60.24764 | 34987 ft | 484 kts | 147° |
| 2026-04-25 21:56 | 47.90477 | 60.31202 | 34993 ft | 484 kts | 147° |
| 2026-04-25 21:56 | 47.85308 | 60.37625 | 34962 ft | 483 kts | 147° |
| 2026-04-25 21:57 | 47.80176 | 60.43986 | 34982 ft | 482 kts | 148° |
| 2026-04-25 21:57 | 47.75016 | 60.50363 | 34987 ft | 481 kts | 148° |
| 2026-04-25 21:58 | 47.69866 | 60.56710 | 34990 ft | 480 kts | 148° |
| 2026-04-25 21:58 | 47.64736 | 60.63016 | 34993 ft | 480 kts | 148° |
| 2026-04-25 21:59 | 47.59602 | 60.69311 | 34994 ft | 480 kts | 148° |
| 2026-04-25 21:59 | 47.54435 | 60.75630 | 34998 ft | 481 kts | 148° |
| 2026-04-25 22:00 | 47.46680 | 60.85083 | 34996 ft | 480 kts | 148° |
| 2026-04-25 22:00 | 47.41545 | 60.91323 | 34997 ft | 479 kts | 148° |
| 2026-04-25 22:01 | 47.36387 | 60.97572 | 34996 ft | 479 kts | 148° |
| 2026-04-25 22:01 | 47.32099 | 61.02753 | 34944 ft | 478 kts | 149° |
| 2026-04-25 22:02 | 47.26111 | 61.09855 | 34992 ft | 474 kts | 149° |
| 2026-04-25 22:02 | 47.21039 | 61.16040 | 35000 ft | 473 kts | 149° |
| 2026-04-25 22:03 | 47.15949 | 61.22187 | 35003 ft | 472 kts | 150° |
| 2026-04-25 22:03 | 47.10886 | 61.28244 | 35002 ft | 471 kts | 150° |
| 2026-04-25 22:04 | 47.05782 | 61.34327 | 34998 ft | 472 kts | 150° |
| 2026-04-25 22:04 | 47.00672 | 61.40407 | 35004 ft | 472 kts | 150° |
| 2026-04-25 22:05 | 46.95595 | 61.46436 | 34951 ft | 472 kts | 151° |
| 2026-04-25 22:05 | 46.90483 | 61.52492 | 34989 ft | 473 kts | 151° |
| 2026-04-25 22:06 | 46.85349 | 61.58529 | 35001 ft | 471 kts | 153° |
| 2026-04-25 22:06 | 46.79847 | 61.63456 | 35004 ft | 457 kts | 164° |
| 2026-04-25 22:07 | 46.75024 | 61.66412 | 34998 ft | 450 kts | 168° |
| 2026-04-25 22:07 | 46.68251 | 61.70377 | 35003 ft | 453 kts | 168° |
| 2026-04-25 22:08 | 46.62391 | 61.73838 | 35003 ft | 455 kts | 168° |
| 2026-04-25 22:08 | 46.56523 | 61.77319 | 34970 ft | 455 kts | 168° |
| 2026-04-25 22:09 | 46.50655 | 61.80798 | 34991 ft | 455 kts | 168° |
| 2026-04-25 22:09 | 46.44790 | 61.84264 | 34996 ft | 455 kts | 168° |
| 2026-04-25 22:10 | 46.38973 | 61.87694 | 34940 ft | 454 kts | 168° |
| 2026-04-25 22:10 | 46.33119 | 61.91137 | 34982 ft | 452 kts | 168° |
| 2026-04-25 22:11 | 46.27278 | 61.94563 | 34987 ft | 452 kts | 168° |
| 2026-04-25 22:11 | 46.21469 | 61.97962 | 34994 ft | 452 kts | 168° |
| 2026-04-25 22:12 | 46.15612 | 62.01382 | 34987 ft | 452 kts | 168° |
| 2026-04-25 22:12 | 46.10787 | 62.04193 | 34986 ft | 453 kts | 168° |
| 2026-04-25 22:13 | 46.03928 | 62.08180 | 34986 ft | 454 kts | 168° |
| 2026-04-25 22:13 | 45.98058 | 62.11584 | 34966 ft | 455 kts | 168° |
| 2026-04-25 22:14 | 45.92219 | 62.14964 | 34973 ft | 455 kts | 168° |
| 2026-04-25 22:14 | 45.86326 | 62.18366 | 34979 ft | 456 kts | 168° |
| 2026-04-25 22:15 | 45.80429 | 62.21764 | 34978 ft | 456 kts | 168° |
| 2026-04-25 22:16 | 45.71615 | 62.26825 | 34979 ft | 456 kts | 168° |
| 2026-04-25 22:16 | 45.65708 | 62.30208 | 34978 ft | 457 kts | 168° |
| 2026-04-25 22:17 | 45.59822 | 62.33572 | 34941 ft | 456 kts | 168° |
| 2026-04-25 22:17 | 45.53917 | 62.36942 | 34963 ft | 456 kts | 168° |
| 2026-04-25 22:18 | 45.48045 | 62.40282 | 34975 ft | 456 kts | 168° |
| 2026-04-25 22:18 | 45.42149 | 62.43628 | 34942 ft | 455 kts | 168° |
| 2026-04-25 22:19 | 45.36266 | 62.46960 | 34966 ft | 454 kts | 169° |
| 2026-04-25 22:19 | 45.31381 | 62.49721 | 34972 ft | 454 kts | 169° |
| 2026-04-25 22:20 | 45.24545 | 62.53575 | 34967 ft | 454 kts | 169° |
| 2026-04-25 22:20 | 45.19663 | 62.56323 | 34958 ft | 452 kts | 169° |
| 2026-04-25 22:21 | 45.13800 | 62.59614 | 34954 ft | 453 kts | 169° |
| 2026-04-25 22:21 | 45.07926 | 62.62903 | 34947 ft | 453 kts | 169° |
| 2026-04-25 22:22 | 45.02083 | 62.66169 | 34937 ft | 453 kts | 169° |
| 2026-04-25 22:22 | 44.96206 | 62.69447 | 34954 ft | 454 kts | 169° |
| 2026-04-25 22:23 | 44.90301 | 62.72731 | 34948 ft | 456 kts | 169° |
| 2026-04-25 22:23 | 44.84389 | 62.76014 | 34925 ft | 457 kts | 169° |
| 2026-04-25 22:24 | 44.78496 | 62.79279 | 34942 ft | 458 kts | 169° |
| 2026-04-25 22:24 | 44.72547 | 62.82568 | 34942 ft | 459 kts | 169° |
| 2026-04-25 22:25 | 44.66590 | 62.85855 | 34890 ft | 460 kts | 169° |
| 2026-04-25 22:25 | 44.60631 | 62.89136 | 34931 ft | 459 kts | 169° |
| 2026-04-25 22:26 | 44.54663 | 62.92414 | 34936 ft | 460 kts | 169° |
| 2026-04-25 22:26 | 44.48709 | 62.95676 | 34875 ft | 461 kts | 169° |
| 2026-04-25 22:27 | 44.42740 | 62.98941 | 34924 ft | 460 kts | 168° |
| 2026-04-25 22:27 | 44.36777 | 63.02196 | 34922 ft | 459 kts | 168° |
| 2026-04-25 22:28 | 44.30822 | 63.05438 | 34932 ft | 458 kts | 168° |
| 2026-04-25 22:28 | 44.24905 | 63.08652 | 34923 ft | 457 kts | 168° |
| 2026-04-25 22:29 | 44.18982 | 63.11862 | 34926 ft | 456 kts | 168° |
| 2026-04-25 22:29 | 44.13085 | 63.15050 | 34926 ft | 457 kts | 168° |
| 2026-04-25 22:30 | 44.04167 | 63.19859 | 34917 ft | 458 kts | 168° |
| 2026-04-25 22:30 | 43.99205 | 63.22528 | 34924 ft | 460 kts | 168° |
| 2026-04-25 22:31 | 43.92251 | 63.26260 | 34925 ft | 461 kts | 168° |
| 2026-04-25 22:31 | 43.86248 | 63.29477 | 34924 ft | 462 kts | 168° |
| 2026-04-25 22:32 | 43.80240 | 63.32690 | 34919 ft | 462 kts | 168° |
| 2026-04-25 22:32 | 43.74233 | 63.35895 | 34925 ft | 462 kts | 168° |
| 2026-04-25 22:33 | 43.68217 | 63.39095 | 34913 ft | 463 kts | 168° |
| 2026-04-25 22:33 | 43.62228 | 63.42275 | 34917 ft | 463 kts | 168° |
| 2026-04-25 22:34 | 43.56196 | 63.45472 | 34900 ft | 464 kts | 168° |
| 2026-04-25 22:34 | 43.50188 | 63.48649 | 34919 ft | 464 kts | 168° |
| 2026-04-25 22:35 | 43.44131 | 63.51844 | 34919 ft | 465 kts | 168° |
| 2026-04-25 22:35 | 43.38114 | 63.55012 | 34893 ft | 465 kts | 167° |
| 2026-04-25 22:36 | 43.32050 | 63.58198 | 34911 ft | 465 kts | 167° |
| 2026-04-25 22:36 | 43.26028 | 63.61355 | 34921 ft | 466 kts | 167° |
| 2026-04-25 22:37 | 43.19952 | 63.64533 | 34911 ft | 467 kts | 167° |
| 2026-04-25 22:37 | 43.13866 | 63.67710 | 34918 ft | 467 kts | 167° |
| 2026-04-25 22:38 | 43.07808 | 63.70866 | 34924 ft | 468 kts | 167° |
| 2026-04-25 22:38 | 43.01710 | 63.74036 | 34911 ft | 468 kts | 167° |
| 2026-04-25 22:39 | 42.95611 | 63.77199 | 34926 ft | 469 kts | 167° |
| 2026-04-25 22:39 | 42.89526 | 63.80349 | 34929 ft | 470 kts | 167° |
| 2026-04-25 22:40 | 42.83402 | 63.83512 | 34925 ft | 470 kts | 167° |
| 2026-04-25 22:40 | 42.77276 | 63.86670 | 34927 ft | 470 kts | 167° |
| 2026-04-25 22:41 | 42.71143 | 63.89824 | 34931 ft | 471 kts | 167° |
| 2026-04-25 22:41 | 42.65043 | 63.92955 | 34931 ft | 470 kts | 168° |
| 2026-04-25 22:42 | 42.58915 | 63.96094 | 34934 ft | 471 kts | 168° |
| 2026-04-25 22:42 | 42.52772 | 63.99233 | 34935 ft | 471 kts | 168° |
| 2026-04-25 22:43 | 42.46677 | 64.02342 | 34926 ft | 470 kts | 168° |
| 2026-04-25 22:43 | 42.40540 | 64.05465 | 34928 ft | 470 kts | 168° |
| 2026-04-25 22:44 | 42.34411 | 64.08578 | 34906 ft | 470 kts | 168° |
| 2026-04-25 22:44 | 42.28288 | 64.11681 | 34928 ft | 470 kts | 168° |
| 2026-04-25 22:45 | 42.22191 | 64.14765 | 34926 ft | 470 kts | 168° |
| 2026-04-25 22:45 | 42.16054 | 64.17862 | 34925 ft | 470 kts | 168° |
| 2026-04-25 22:46 | 42.09966 | 64.20929 | 34922 ft | 469 kts | 168° |
| 2026-04-25 22:46 | 42.03845 | 64.24006 | 34922 ft | 469 kts | 168° |
| 2026-04-25 22:47 | 41.97726 | 64.27075 | 34920 ft | 467 kts | 168° |
| 2026-04-25 22:47 | 41.91656 | 64.30113 | 34926 ft | 467 kts | 168° |
| 2026-04-25 22:48 | 41.85547 | 64.33165 | 34927 ft | 467 kts | 168° |
| 2026-04-25 22:48 | 41.79444 | 64.36207 | 34914 ft | 467 kts | 168° |
| 2026-04-25 22:49 | 41.73377 | 64.39225 | 34930 ft | 468 kts | 168° |
| 2026-04-25 22:49 | 41.67254 | 64.42264 | 34935 ft | 469 kts | 168° |
| 2026-04-25 22:50 | 41.61119 | 64.45304 | 34927 ft | 469 kts | 168° |
| 2026-04-25 22:50 | 41.55017 | 64.48322 | 34935 ft | 470 kts | 168° |
| 2026-04-25 22:51 | 41.48888 | 64.51347 | 34919 ft | 470 kts | 167° |
| 2026-04-25 22:51 | 41.42791 | 64.54351 | 34935 ft | 469 kts | 167° |
| 2026-04-25 22:52 | 41.36647 | 64.57371 | 34942 ft | 468 kts | 167° |
| 2026-04-25 22:52 | 41.31571 | 64.59862 | 34920 ft | 467 kts | 167° |
| 2026-04-25 22:53 | 41.24468 | 64.63339 | 34939 ft | 466 kts | 167° |
| 2026-04-25 22:53 | 41.18399 | 64.66305 | 34943 ft | 466 kts | 167° |
| 2026-04-25 22:54 | 41.12311 | 64.69272 | 34933 ft | 466 kts | 167° |
| 2026-04-25 22:54 | 41.06220 | 64.72237 | 34938 ft | 466 kts | 168° |
| 2026-04-25 22:55 | 41.00126 | 64.75196 | 34936 ft | 465 kts | 168° |
| 2026-04-25 22:55 | 40.94073 | 64.78131 | 34929 ft | 465 kts | 167° |
| 2026-04-25 22:56 | 40.87993 | 64.81073 | 34945 ft | 464 kts | 167° |
| 2026-04-25 22:56 | 40.81943 | 64.83994 | 34953 ft | 464 kts | 167° |
| 2026-04-25 22:57 | 40.75860 | 64.86925 | 34942 ft | 464 kts | 167° |
| 2026-04-25 22:57 | 40.69779 | 64.89850 | 34955 ft | 464 kts | 167° |
| 2026-04-25 22:58 | 40.63747 | 64.92745 | 34962 ft | 464 kts | 167° |
| 2026-04-25 22:58 | 40.57659 | 64.95661 | 34954 ft | 465 kts | 167° |
| 2026-04-25 22:59 | 40.51561 | 64.98577 | 34976 ft | 466 kts | 167° |
| 2026-04-25 22:59 | 40.45486 | 65.01475 | 34972 ft | 468 kts | 167° |
| 2026-04-25 23:00 | 40.39339 | 65.04404 | 34976 ft | 469 kts | 168° |
| 2026-04-25 23:00 | 40.33233 | 65.07308 | 34975 ft | 470 kts | 168° |
| 2026-04-25 23:01 | 40.27073 | 65.10232 | 34971 ft | 470 kts | 168° |
| 2026-04-25 23:01 | 40.20913 | 65.13150 | 34961 ft | 470 kts | 168° |
| 2026-04-25 23:02 | 40.14744 | 65.16067 | 34965 ft | 470 kts | 168° |
| 2026-04-25 23:02 | 40.08658 | 65.19200 | 35010 ft | 478 kts | 163° |
| 2026-04-25 23:03 | 40.05621 | 65.20996 | 35244 ft | 480 kts | 163° |
| 2026-04-25 23:03 | 40.02580 | 65.22811 | 35578 ft | 479 kts | 163° |
| 2026-04-25 23:03 | 39.99557 | 65.24617 | 35984 ft | 477 kts | 163° |
| 2026-04-25 23:03 | 39.96549 | 65.26408 | 36379 ft | 474 kts | 164° |
| 2026-04-25 23:04 | 39.93553 | 65.28183 | 36768 ft | 472 kts | 164° |
| 2026-04-25 23:04 | 39.91572 | 65.29352 | 36925 ft | 473 kts | 164° |
| 2026-04-25 23:04 | 39.85516 | 65.32900 | 36971 ft | 479 kts | 164° |
| 2026-04-25 23:05 | 39.79445 | 65.36459 | 36978 ft | 475 kts | 164° |
| 2026-04-25 23:05 | 39.73428 | 65.39983 | 36989 ft | 473 kts | 164° |
| 2026-04-25 23:06 | 39.67463 | 65.43465 | 36988 ft | 471 kts | 164° |
| 2026-04-25 23:06 | 39.61463 | 65.46959 | 36988 ft | 473 kts | 164° |
| 2026-04-25 23:07 | 39.55436 | 65.50462 | 36994 ft | 475 kts | 164° |
| 2026-04-25 23:07 | 39.49418 | 65.53954 | 36975 ft | 477 kts | 164° |
| 2026-04-25 23:08 | 39.43339 | 65.57477 | 36982 ft | 478 kts | 164° |
| 2026-04-25 23:08 | 39.37249 | 65.61000 | 36979 ft | 479 kts | 164° |
| 2026-04-25 23:09 | 39.31184 | 65.64502 | 36975 ft | 480 kts | 164° |
| 2026-04-25 23:09 | 39.25060 | 65.68030 | 36983 ft | 481 kts | 164° |
| 2026-04-25 23:10 | 39.18925 | 65.71558 | 36975 ft | 482 kts | 164° |
| 2026-04-25 23:10 | 39.12791 | 65.75078 | 36964 ft | 482 kts | 164° |
| 2026-04-25 23:11 | 39.06685 | 65.78577 | 36983 ft | 483 kts | 164° |
| 2026-04-25 23:11 | 39.00525 | 65.82099 | 36968 ft | 483 kts | 164° |
| 2026-04-25 23:12 | 38.94377 | 65.85608 | 36954 ft | 483 kts | 164° |
| 2026-04-25 23:12 | 38.88266 | 65.89090 | 36972 ft | 483 kts | 164° |
| 2026-04-25 23:13 | 38.82106 | 65.92595 | 36974 ft | 484 kts | 163° |
| 2026-04-25 23:13 | 38.76039 | 65.96301 | 36964 ft | 487 kts | 162° |
| 2026-04-25 23:14 | 38.69938 | 66.00175 | 36968 ft | 489 kts | 162° |
| 2026-04-25 23:14 | 38.63825 | 66.04031 | 36977 ft | 490 kts | 162° |
| 2026-04-25 23:15 | 38.57721 | 66.07840 | 36982 ft | 491 kts | 162° |
| 2026-04-25 23:15 | 38.51559 | 66.11663 | 36981 ft | 491 kts | 162° |
| 2026-04-25 23:16 | 38.45401 | 66.15476 | 36988 ft | 491 kts | 162° |
| 2026-04-25 23:16 | 38.39283 | 66.19260 | 36969 ft | 491 kts | 162° |
| 2026-04-25 23:17 | 38.33133 | 66.23056 | 36995 ft | 490 kts | 162° |
| 2026-04-25 23:17 | 38.26969 | 66.26852 | 37010 ft | 491 kts | 162° |
| 2026-04-25 23:18 | 38.20854 | 66.30611 | 36997 ft | 491 kts | 162° |
| 2026-04-25 23:18 | 38.14687 | 66.34396 | 37020 ft | 491 kts | 162° |
| 2026-04-25 23:19 | 38.08553 | 66.38153 | 37047 ft | 492 kts | 162° |
| 2026-04-25 23:19 | 38.02361 | 66.41938 | 37017 ft | 493 kts | 162° |
| 2026-04-25 23:20 | 37.96163 | 66.45722 | 37039 ft | 493 kts | 162° |
| 2026-04-25 23:20 | 37.89961 | 66.49500 | 37040 ft | 494 kts | 162° |
| 2026-04-25 23:21 | 37.83776 | 66.53260 | 37045 ft | 496 kts | 162° |
| 2026-04-25 23:21 | 37.77548 | 66.57040 | 37028 ft | 496 kts | 163° |
| 2026-04-25 23:22 | 37.71361 | 66.60787 | 37024 ft | 496 kts | 162° |
| 2026-04-25 23:23 | 37.61998 | 66.66444 | 37006 ft | 496 kts | 162° |
| 2026-04-25 23:23 | 37.55764 | 66.70203 | 37009 ft | 497 kts | 162° |
| 2026-04-25 23:24 | 37.49561 | 66.73935 | 37006 ft | 498 kts | 162° |
| 2026-04-25 23:24 | 37.43286 | 66.77705 | 36973 ft | 498 kts | 162° |
| 2026-04-25 23:25 | 37.37016 | 66.81464 | 36983 ft | 499 kts | 162° |
| 2026-04-25 23:25 | 37.30749 | 66.85213 | 36983 ft | 500 kts | 162° |
| 2026-04-25 23:26 | 37.24486 | 66.88954 | 36955 ft | 501 kts | 162° |
| 2026-04-25 23:26 | 37.18171 | 66.92720 | 36988 ft | 502 kts | 162° |
| 2026-04-25 23:27 | 37.11845 | 66.96485 | 36973 ft | 502 kts | 162° |
| 2026-04-25 23:27 | 37.05560 | 67.00218 | 36970 ft | 503 kts | 162° |
| 2026-04-25 23:28 | 36.99239 | 67.03967 | 36977 ft | 502 kts | 162° |
| 2026-04-25 23:28 | 36.92903 | 67.07717 | 36977 ft | 502 kts | 162° |
| 2026-04-25 23:29 | 36.86574 | 67.11456 | 36981 ft | 502 kts | 162° |
| 2026-04-25 23:29 | 36.80284 | 67.15166 | 36983 ft | 501 kts | 162° |
| 2026-04-25 23:30 | 36.73990 | 67.18913 | 37004 ft | 503 kts | 159° |
| 2026-04-25 23:30 | 36.68070 | 67.23778 | 37025 ft | 514 kts | 147° |
| 2026-04-25 23:31 | 36.62805 | 67.29856 | 37033 ft | 520 kts | 141° |
| 2026-04-25 23:31 | 36.57657 | 67.36208 | 37026 ft | 521 kts | 141° |
| 2026-04-25 23:32 | 36.52480 | 67.42539 | 37033 ft | 520 kts | 141° |
| 2026-04-25 23:32 | 36.47306 | 67.48794 | 37042 ft | 520 kts | 141° |
| 2026-04-25 23:33 | 36.42095 | 67.55059 | 37056 ft | 519 kts | 141° |
| 2026-04-25 23:33 | 36.36924 | 67.61264 | 37067 ft | 520 kts | 141° |
| 2026-04-25 23:34 | 36.31712 | 67.67510 | 37076 ft | 520 kts | 141° |
| 2026-04-25 23:34 | 36.26498 | 67.73747 | 37060 ft | 521 kts | 141° |
| 2026-04-25 23:35 | 36.21303 | 67.79952 | 37090 ft | 520 kts | 141° |
| 2026-04-25 23:35 | 36.16081 | 67.86176 | 37101 ft | 520 kts | 141° |
| 2026-04-25 23:36 | 36.10858 | 67.92389 | 37106 ft | 520 kts | 141° |
| 2026-04-25 23:36 | 36.05664 | 67.98554 | 37101 ft | 520 kts | 141° |
| 2026-04-25 23:37 | 36.00429 | 68.04756 | 37116 ft | 519 kts | 141° |
| 2026-04-25 23:37 | 35.95221 | 68.10917 | 37120 ft | 518 kts | 141° |
| 2026-04-25 23:38 | 35.90042 | 68.17028 | 37104 ft | 517 kts | 141° |
| 2026-04-25 23:38 | 35.84844 | 68.23153 | 37124 ft | 516 kts | 141° |
| 2026-04-25 23:39 | 35.79672 | 68.29231 | 37151 ft | 516 kts | 141° |
| 2026-04-25 23:39 | 35.74451 | 68.35360 | 37138 ft | 516 kts | 141° |
| 2026-04-25 23:40 | 35.69266 | 68.41433 | 37150 ft | 517 kts | 141° |
| 2026-04-25 23:40 | 35.64037 | 68.47545 | 37128 ft | 518 kts | 141° |
| 2026-04-25 23:41 | 35.58805 | 68.53651 | 37135 ft | 518 kts | 141° |
| 2026-04-25 23:41 | 35.53600 | 68.59713 | 37150 ft | 517 kts | 141° |
| 2026-04-25 23:42 | 35.48368 | 68.65795 | 37139 ft | 517 kts | 141° |
| 2026-04-25 23:42 | 35.43139 | 68.71866 | 37195 ft | 517 kts | 141° |
| 2026-04-25 23:43 | 35.37894 | 68.77939 | 37183 ft | 518 kts | 141° |
| 2026-04-25 23:43 | 35.32670 | 68.83975 | 37176 ft | 518 kts | 141° |
| 2026-04-25 23:44 | 35.27412 | 68.90044 | 37172 ft | 518 kts | 141° |
| 2026-04-25 23:44 | 35.22189 | 68.96059 | 37181 ft | 517 kts | 141° |
| 2026-04-25 23:45 | 35.16948 | 69.02084 | 37139 ft | 517 kts | 141° |
| 2026-04-25 23:45 | 35.11718 | 69.08089 | 37140 ft | 514 kts | 141° |
| 2026-04-25 23:46 | 35.06490 | 69.14074 | 37099 ft | 514 kts | 141° |
| 2026-04-25 23:46 | 35.01308 | 69.20001 | 37101 ft | 514 kts | 141° |
| 2026-04-25 23:47 | 34.95736 | 69.25316 | 37091 ft | 500 kts | 160° |
| 2026-04-25 23:47 | 34.92525 | 69.26844 | 37064 ft | 493 kts | 171° |
| 2026-04-25 23:47 | 34.89176 | 69.27643 | 37069 ft | 486 kts | 182° |
| 2026-04-25 23:48 | 34.82431 | 69.27845 | 37073 ft | 488 kts | 185° |
| 2026-04-25 23:48 | 34.75640 | 69.28058 | 37063 ft | 491 kts | 184° |
| 2026-04-25 23:49 | 34.68858 | 69.28358 | 37051 ft | 482 kts | 184° |
| 2026-04-25 23:49 | 34.62183 | 69.28663 | 37065 ft | 481 kts | 184° |
| 2026-04-25 23:50 | 34.56614 | 69.28910 | 37069 ft | 481 kts | 184° |
| 2026-04-25 23:50 | 34.49913 | 69.29234 | 37072 ft | 482 kts | 184° |
| 2026-04-25 23:51 | 34.43192 | 69.29612 | 37066 ft | 483 kts | 183° |
| 2026-04-25 23:51 | 34.36508 | 69.29993 | 37082 ft | 484 kts | 183° |
| 2026-04-25 23:52 | 34.29765 | 69.30369 | 37089 ft | 486 kts | 183° |
| 2026-04-25 23:52 | 34.22990 | 69.30740 | 37090 ft | 487 kts | 184° |
| 2026-04-25 23:53 | 34.16210 | 69.31111 | 37088 ft | 487 kts | 183° |
| 2026-04-25 23:53 | 34.09467 | 69.31480 | 37099 ft | 487 kts | 183° |
| 2026-04-25 23:54 | 34.02676 | 69.31852 | 37107 ft | 488 kts | 183° |
| 2026-04-25 23:54 | 33.95923 | 69.32221 | 37088 ft | 488 kts | 183° |
| 2026-04-25 23:55 | 33.89142 | 69.32590 | 37107 ft | 487 kts | 183° |
| 2026-04-25 23:55 | 33.82360 | 69.32959 | 37118 ft | 487 kts | 183° |
| 2026-04-25 23:56 | 33.75633 | 69.33325 | 37095 ft | 487 kts | 183° |
| 2026-04-25 23:56 | 33.68860 | 69.33691 | 37088 ft | 485 kts | 183° |
| 2026-04-25 23:57 | 33.62120 | 69.34056 | 37091 ft | 485 kts | 183° |
| 2026-04-25 23:57 | 33.55412 | 69.34419 | 37083 ft | 484 kts | 183° |
| 2026-04-25 23:58 | 33.48676 | 69.34782 | 37084 ft | 484 kts | 183° |
| 2026-04-25 23:58 | 33.41930 | 69.35145 | 37066 ft | 484 kts | 183° |
| 2026-04-25 23:59 | 33.35235 | 69.35505 | 37064 ft | 484 kts | 183° |
| 2026-04-25 23:59 | 33.28483 | 69.35867 | 37070 ft | 485 kts | 183° |
| 2026-04-26 00:00 | 33.21728 | 69.36233 | 37058 ft | 487 kts | 183° |
| 2026-04-26 00:00 | 33.14953 | 69.36592 | 37033 ft | 488 kts | 183° |
| 2026-04-26 00:01 | 33.08172 | 69.36953 | 37057 ft | 488 kts | 183° |
| 2026-04-26 00:01 | 33.01389 | 69.37316 | 37048 ft | 488 kts | 183° |
| 2026-04-26 00:02 | 32.94638 | 69.37677 | 37035 ft | 487 kts | 182° |
| 2026-04-26 00:02 | 32.87854 | 69.38039 | 37031 ft | 486 kts | 182° |
| 2026-04-26 00:03 | 32.81099 | 69.38399 | 37031 ft | 485 kts | 182° |
| 2026-04-26 00:03 | 32.74340 | 69.38757 | 37037 ft | 485 kts | 182° |
| 2026-04-26 00:04 | 32.67630 | 69.39112 | 37020 ft | 484 kts | 182° |
| 2026-04-26 00:04 | 32.60892 | 69.39468 | 37022 ft | 484 kts | 182° |
| 2026-04-26 00:05 | 32.54192 | 69.39822 | 37008 ft | 484 kts | 182° |
| 2026-04-26 00:05 | 32.47458 | 69.40177 | 36987 ft | 484 kts | 182° |
| 2026-04-26 00:06 | 32.40750 | 69.40529 | 36997 ft | 483 kts | 182° |
| 2026-04-26 00:06 | 32.34022 | 69.40884 | 36991 ft | 483 kts | 182° |
| 2026-04-26 00:07 | 32.27313 | 69.41236 | 36977 ft | 482 kts | 182° |
| 2026-04-26 00:07 | 32.20635 | 69.41586 | 36984 ft | 483 kts | 182° |
| 2026-04-26 00:08 | 32.13901 | 69.41938 | 36957 ft | 483 kts | 182° |
| 2026-04-26 00:08 | 32.07208 | 69.42289 | 36967 ft | 483 kts | 182° |
| 2026-04-26 00:09 | 32.00471 | 69.42640 | 36969 ft | 483 kts | 182° |
| 2026-04-26 00:09 | 31.93769 | 69.42989 | 36953 ft | 483 kts | 182° |
| 2026-04-26 00:10 | 31.87052 | 69.43339 | 36967 ft | 482 kts | 182° |
| 2026-04-26 00:10 | 31.80342 | 69.43687 | 36962 ft | 483 kts | 182° |
| 2026-04-26 00:11 | 31.73655 | 69.44035 | 36963 ft | 483 kts | 182° |
| 2026-04-26 00:11 | 31.66934 | 69.44382 | 36961 ft | 483 kts | 181° |
| 2026-04-26 00:12 | 31.60234 | 69.44729 | 36977 ft | 483 kts | 181° |
| 2026-04-26 00:12 | 31.53504 | 69.45076 | 36975 ft | 483 kts | 181° |
| 2026-04-26 00:13 | 31.46786 | 69.45424 | 36981 ft | 482 kts | 181° |
| 2026-04-26 00:13 | 31.40177 | 69.45331 | 36989 ft | 470 kts | 198° |
| 2026-04-26 00:13 | 31.37181 | 69.43973 | 36987 ft | 459 kts | 215° |
| 2026-04-26 00:14 | 31.34652 | 69.41729 | 37018 ft | 453 kts | 227° |
| 2026-04-26 00:14 | 31.32585 | 69.38962 | 37177 ft | 451 kts | 239° |
| 2026-04-26 00:14 | 31.31107 | 69.35765 | 37411 ft | 446 kts | 246° |
| 2026-04-26 00:14 | 31.29765 | 69.32490 | 37701 ft | 445 kts | 246° |
| 2026-04-26 00:15 | 31.28433 | 69.29224 | 37944 ft | 447 kts | 246° |
| 2026-04-26 00:15 | 31.25739 | 69.22688 | 37992 ft | 448 kts | 246° |
| 2026-04-26 00:16 | 31.23006 | 69.16180 | 37991 ft | 442 kts | 245° |
| 2026-04-26 00:16 | 31.20293 | 69.09779 | 38003 ft | 440 kts | 245° |
| 2026-04-26 00:17 | 31.17569 | 69.03372 | 38024 ft | 439 kts | 245° |
| 2026-04-26 00:17 | 31.14851 | 68.96989 | 38028 ft | 440 kts | 245° |
| 2026-04-26 00:18 | 31.12116 | 68.90575 | 38028 ft | 441 kts | 245° |
| 2026-04-26 00:18 | 31.09389 | 68.84191 | 38008 ft | 442 kts | 245° |
| 2026-04-26 00:19 | 31.06645 | 68.77777 | 38017 ft | 443 kts | 245° |
| 2026-04-26 00:19 | 31.03888 | 68.71346 | 38024 ft | 444 kts | 245° |
| 2026-04-26 00:20 | 31.01117 | 68.64894 | 38021 ft | 445 kts | 244° |
| 2026-04-26 00:20 | 30.98348 | 68.58456 | 38030 ft | 445 kts | 244° |
| 2026-04-26 00:21 | 30.95567 | 68.52001 | 38030 ft | 445 kts | 245° |
| 2026-04-26 00:21 | 30.92781 | 68.45549 | 38029 ft | 445 kts | 245° |
| 2026-04-26 00:22 | 30.90008 | 68.39136 | 38020 ft | 445 kts | 245° |
| 2026-04-26 00:22 | 30.87218 | 68.32693 | 38029 ft | 444 kts | 245° |
| 2026-04-26 00:23 | 30.84448 | 68.26308 | 38031 ft | 443 kts | 244° |
| 2026-04-26 00:23 | 30.81665 | 68.19906 | 38030 ft | 442 kts | 244° |
| 2026-04-26 00:24 | 30.78877 | 68.13503 | 38039 ft | 442 kts | 245° |
| 2026-04-26 00:24 | 30.76111 | 68.07159 | 38040 ft | 441 kts | 244° |
| 2026-04-26 00:25 | 30.73330 | 68.00794 | 38040 ft | 442 kts | 244° |
| 2026-04-26 00:25 | 30.70557 | 67.94455 | 38045 ft | 442 kts | 244° |
| 2026-04-26 00:26 | 30.67762 | 67.88079 | 38062 ft | 443 kts | 244° |
| 2026-04-26 00:26 | 30.64953 | 67.81679 | 38029 ft | 443 kts | 244° |
| 2026-04-26 00:27 | 30.62163 | 67.75337 | 38057 ft | 443 kts | 244° |
| 2026-04-26 00:27 | 30.59348 | 67.68947 | 38064 ft | 444 kts | 244° |
| 2026-04-26 00:28 | 30.56528 | 67.62556 | 38061 ft | 445 kts | 244° |
| 2026-04-26 00:28 | 30.53718 | 67.56200 | 38060 ft | 445 kts | 244° |
| 2026-04-26 00:29 | 30.50886 | 67.49804 | 38054 ft | 446 kts | 244° |
| 2026-04-26 00:29 | 30.48047 | 67.43400 | 38059 ft | 446 kts | 244° |
| 2026-04-26 00:30 | 30.45199 | 67.36990 | 38027 ft | 447 kts | 244° |
| 2026-04-26 00:30 | 30.42368 | 67.30631 | 38035 ft | 446 kts | 244° |
| 2026-04-26 00:31 | 30.39516 | 67.24231 | 38026 ft | 446 kts | 244° |
| 2026-04-26 00:31 | 30.36668 | 67.17851 | 38030 ft | 445 kts | 244° |
| 2026-04-26 00:32 | 30.33836 | 67.11517 | 38023 ft | 445 kts | 244° |
| 2026-04-26 00:32 | 30.29556 | 67.01963 | 38021 ft | 445 kts | 244° |
| 2026-04-26 00:33 | 30.26460 | 66.95761 | 38016 ft | 446 kts | 234° |
| 2026-04-26 00:33 | 30.22294 | 66.90471 | 38011 ft | 450 kts | 224° |
| 2026-04-26 00:34 | 30.17331 | 66.86003 | 38014 ft | 452 kts | 220° |
| 2026-04-26 00:34 | 30.12274 | 66.81639 | 38010 ft | 453 kts | 220° |
| 2026-04-26 00:35 | 30.07254 | 66.77281 | 38012 ft | 454 kts | 220° |
| 2026-04-26 00:35 | 30.02208 | 66.72868 | 38004 ft | 455 kts | 220° |
| 2026-04-26 00:36 | 29.98017 | 66.69196 | 38012 ft | 455 kts | 220° |
| 2026-04-26 00:36 | 29.92976 | 66.64781 | 38005 ft | 455 kts | 220° |
| 2026-04-26 00:37 | 29.87926 | 66.60364 | 37997 ft | 455 kts | 220° |
| 2026-04-26 00:37 | 29.82864 | 66.55944 | 37996 ft | 456 kts | 220° |
| 2026-04-26 00:38 | 29.77825 | 66.51550 | 38011 ft | 456 kts | 220° |
| 2026-04-26 00:38 | 29.72756 | 66.47137 | 38002 ft | 457 kts | 220° |
| 2026-04-26 00:39 | 29.67674 | 66.42717 | 37995 ft | 458 kts | 220° |
| 2026-04-26 00:39 | 29.62616 | 66.38323 | 38001 ft | 458 kts | 220° |
| 2026-04-26 00:40 | 29.57523 | 66.33906 | 37968 ft | 457 kts | 220° |
| 2026-04-26 00:40 | 29.52438 | 66.29500 | 37984 ft | 457 kts | 220° |
| 2026-04-26 00:41 | 29.47383 | 66.25127 | 37979 ft | 457 kts | 220° |
| 2026-04-26 00:41 | 29.42302 | 66.20735 | 37979 ft | 457 kts | 220° |
| 2026-04-26 00:42 | 29.37238 | 66.16366 | 37977 ft | 457 kts | 220° |
| 2026-04-26 00:42 | 29.32155 | 66.11985 | 37944 ft | 456 kts | 220° |
| 2026-04-26 00:43 | 29.27065 | 66.07603 | 37960 ft | 456 kts | 220° |
| 2026-04-26 00:43 | 29.22022 | 66.03268 | 37967 ft | 456 kts | 220° |
| 2026-04-26 00:44 | 29.16936 | 65.98900 | 37943 ft | 456 kts | 220° |
| 2026-04-26 00:44 | 29.11853 | 65.94541 | 37946 ft | 456 kts | 220° |
| 2026-04-26 00:45 | 29.06798 | 65.90212 | 37953 ft | 456 kts | 219° |
| 2026-04-26 00:45 | 29.01710 | 65.85860 | 37927 ft | 456 kts | 219° |
| 2026-04-26 00:46 | 28.96658 | 65.81544 | 37932 ft | 455 kts | 219° |
| 2026-04-26 00:46 | 28.91576 | 65.77208 | 37934 ft | 455 kts | 219° |
| 2026-04-26 00:47 | 28.86497 | 65.72880 | 37913 ft | 455 kts | 219° |
| 2026-04-26 00:47 | 28.81450 | 65.68585 | 37912 ft | 454 kts | 219° |
| 2026-04-26 00:48 | 28.76376 | 65.64271 | 37910 ft | 454 kts | 219° |
| 2026-04-26 00:48 | 28.71330 | 65.59987 | 37902 ft | 454 kts | 219° |
| 2026-04-26 00:49 | 28.66249 | 65.55678 | 37898 ft | 454 kts | 219° |
| 2026-04-26 00:49 | 28.61188 | 65.51393 | 37884 ft | 453 kts | 219° |
| 2026-04-26 00:50 | 28.56122 | 65.47107 | 37886 ft | 453 kts | 219° |
| 2026-04-26 00:50 | 28.51085 | 65.42852 | 37876 ft | 453 kts | 219° |
| 2026-04-26 00:51 | 28.46005 | 65.38565 | 37878 ft | 453 kts | 219° |
| 2026-04-26 00:51 | 28.40955 | 65.34309 | 37874 ft | 454 kts | 219° |
| 2026-04-26 00:52 | 28.35877 | 65.30035 | 37863 ft | 454 kts | 219° |
| 2026-04-26 00:52 | 28.30824 | 65.25787 | 37846 ft | 454 kts | 219° |
| 2026-04-26 00:53 | 28.25723 | 65.21503 | 37862 ft | 455 kts | 219° |
| 2026-04-26 00:53 | 28.20658 | 65.17255 | 37856 ft | 456 kts | 219° |
| 2026-04-26 00:54 | 28.15547 | 65.12974 | 37856 ft | 457 kts | 219° |
| 2026-04-26 00:54 | 28.10415 | 65.08680 | 37853 ft | 457 kts | 219° |
| 2026-04-26 00:55 | 28.05316 | 65.04419 | 37853 ft | 458 kts | 219° |
| 2026-04-26 00:55 | 28.00183 | 65.00136 | 37852 ft | 458 kts | 219° |
| 2026-04-26 00:56 | 27.95044 | 64.95852 | 37839 ft | 458 kts | 219° |
| 2026-04-26 00:56 | 27.89937 | 64.91600 | 37846 ft | 459 kts | 219° |
| 2026-04-26 00:57 | 27.84778 | 64.87309 | 37858 ft | 459 kts | 219° |
| 2026-04-26 00:57 | 27.79630 | 64.83033 | 37858 ft | 459 kts | 219° |
| 2026-04-26 00:58 | 27.74507 | 64.78784 | 37858 ft | 459 kts | 219° |
| 2026-04-26 00:58 | 27.69349 | 64.74509 | 37885 ft | 459 kts | 219° |
| 2026-04-26 00:59 | 27.64184 | 64.70232 | 37864 ft | 460 kts | 219° |
| 2026-04-26 00:59 | 27.59010 | 64.65959 | 37895 ft | 461 kts | 219° |
| 2026-04-26 01:00 | 27.53868 | 64.61714 | 37895 ft | 461 kts | 219° |
| 2026-04-26 01:00 | 27.48675 | 64.57430 | 37892 ft | 462 kts | 219° |
| 2026-04-26 01:01 | 27.43480 | 64.53151 | 37911 ft | 462 kts | 219° |
| 2026-04-26 01:01 | 27.38278 | 64.48871 | 37913 ft | 463 kts | 219° |
| 2026-04-26 01:02 | 27.33109 | 64.44624 | 37908 ft | 463 kts | 219° |
| 2026-04-26 01:02 | 27.27899 | 64.40348 | 37920 ft | 463 kts | 219° |
| 2026-04-26 01:03 | 27.22686 | 64.36074 | 37914 ft | 463 kts | 219° |
| 2026-04-26 01:03 | 27.17470 | 64.31803 | 37919 ft | 463 kts | 219° |
| 2026-04-26 01:04 | 27.12284 | 64.27561 | 37922 ft | 463 kts | 219° |
| 2026-04-26 01:04 | 27.07076 | 64.23306 | 37923 ft | 463 kts | 219° |
| 2026-04-26 01:05 | 27.01865 | 64.19052 | 37915 ft | 463 kts | 219° |
| 2026-04-26 01:05 | 26.96662 | 64.14798 | 37921 ft | 462 kts | 220° |
| 2026-04-26 01:06 | 26.91924 | 64.09958 | 37927 ft | 459 kts | 228° |
| 2026-04-26 01:06 | 26.87489 | 64.04807 | 37920 ft | 459 kts | 228° |
| 2026-04-26 01:07 | 26.83035 | 63.99657 | 37923 ft | 460 kts | 228° |
| 2026-04-26 01:07 | 26.78581 | 63.94546 | 37914 ft | 460 kts | 228° |
| 2026-04-26 01:08 | 26.74096 | 63.89420 | 37910 ft | 460 kts | 228° |
| 2026-04-26 01:08 | 26.69605 | 63.84297 | 37907 ft | 460 kts | 228° |
| 2026-04-26 01:09 | 26.65144 | 63.79211 | 37905 ft | 460 kts | 228° |
| 2026-04-26 01:09 | 26.60656 | 63.74100 | 37886 ft | 460 kts | 228° |
| 2026-04-26 01:10 | 26.56187 | 63.69017 | 37899 ft | 460 kts | 228° |
| 2026-04-26 01:10 | 26.51684 | 63.63900 | 37896 ft | 461 kts | 228° |
| 2026-04-26 01:11 | 26.47183 | 63.58793 | 37887 ft | 461 kts | 227° |
| 2026-04-26 01:11 | 26.42670 | 63.53678 | 37892 ft | 461 kts | 227° |
| 2026-04-26 01:12 | 26.38188 | 63.48604 | 37872 ft | 461 kts | 227° |
| 2026-04-26 01:12 | 26.33675 | 63.43501 | 37882 ft | 462 kts | 227° |
| 2026-04-26 01:13 | 26.29179 | 63.38423 | 37881 ft | 462 kts | 227° |
| 2026-04-26 01:13 | 26.24652 | 63.33316 | 37863 ft | 462 kts | 227° |
| 2026-04-26 01:14 | 26.20123 | 63.28212 | 37865 ft | 463 kts | 227° |
| 2026-04-26 01:14 | 26.15584 | 63.23103 | 37858 ft | 464 kts | 227° |
| 2026-04-26 01:15 | 26.11064 | 63.18022 | 37854 ft | 464 kts | 227° |
| 2026-04-26 01:15 | 26.06515 | 63.12913 | 37840 ft | 464 kts | 227° |
| 2026-04-26 01:16 | 26.01970 | 63.07814 | 37846 ft | 464 kts | 227° |
| 2026-04-26 01:16 | 25.97256 | 63.02889 | 37820 ft | 466 kts | 221° |
| 2026-04-26 01:17 | 25.91952 | 62.98783 | 37830 ft | 468 kts | 217° |
| 2026-04-26 01:17 | 25.86539 | 62.94736 | 37836 ft | 469 kts | 217° |
| 2026-04-26 01:18 | 25.81125 | 62.90653 | 37829 ft | 470 kts | 217° |
| 2026-04-26 01:18 | 25.75737 | 62.86568 | 37825 ft | 470 kts | 217° |
| 2026-04-26 01:19 | 25.70337 | 62.82474 | 37825 ft | 471 kts | 217° |
| 2026-04-26 01:19 | 25.64920 | 62.78373 | 37825 ft | 471 kts | 217° |
| 2026-04-26 01:20 | 25.59534 | 62.74301 | 37824 ft | 471 kts | 217° |
| 2026-04-26 01:20 | 25.54115 | 62.70209 | 37826 ft | 471 kts | 217° |
| 2026-04-26 01:21 | 25.49611 | 62.66811 | 37831 ft | 470 kts | 217° |
| 2026-04-26 01:21 | 25.44198 | 62.62732 | 37827 ft | 470 kts | 217° |
| 2026-04-26 01:22 | 25.38788 | 62.58657 | 37825 ft | 470 kts | 217° |
| 2026-04-26 01:22 | 25.33390 | 62.54576 | 37826 ft | 469 kts | 219° |
| 2026-04-26 01:23 | 25.28551 | 62.49846 | 37822 ft | 465 kts | 230° |
| 2026-04-26 01:23 | 25.24419 | 62.44407 | 37823 ft | 464 kts | 233° |
| 2026-04-26 01:24 | 25.20313 | 62.38886 | 37821 ft | 466 kts | 233° |
| 2026-04-26 01:24 | 25.16150 | 62.33359 | 37840 ft | 467 kts | 232° |
| 2026-04-26 01:25 | 25.11975 | 62.27845 | 37820 ft | 468 kts | 232° |
| 2026-04-26 01:25 | 25.07861 | 62.22330 | 37815 ft | 467 kts | 236° |
| 2026-04-26 01:26 | 25.04357 | 62.16310 | 37829 ft | 465 kts | 242° |
| 2026-04-26 01:26 | 25.01024 | 62.10183 | 37833 ft | 465 kts | 242° |
| 2026-04-26 01:27 | 24.97691 | 62.04107 | 37813 ft | 465 kts | 241° |
| 2026-04-26 01:27 | 24.94317 | 61.98007 | 37810 ft | 465 kts | 241° |
| 2026-04-26 01:28 | 24.90940 | 61.91923 | 37827 ft | 465 kts | 241° |
| 2026-04-26 01:28 | 24.87582 | 61.85880 | 37821 ft | 465 kts | 242° |
| 2026-04-26 01:29 | 24.84188 | 61.79778 | 37819 ft | 466 kts | 242° |
| 2026-04-26 01:29 | 24.80813 | 61.73718 | 37819 ft | 466 kts | 242° |
| 2026-04-26 01:30 | 24.77413 | 61.67620 | 37823 ft | 466 kts | 242° |
| 2026-04-26 01:30 | 24.74032 | 61.61564 | 37825 ft | 467 kts | 242° |
| 2026-04-26 01:31 | 24.70629 | 61.55475 | 37822 ft | 467 kts | 242° |
| 2026-04-26 01:31 | 24.67223 | 61.49389 | 37821 ft | 467 kts | 242° |
| 2026-04-26 01:32 | 24.63815 | 61.43308 | 37821 ft | 466 kts | 242° |
| 2026-04-26 01:32 | 24.60423 | 61.37261 | 37817 ft | 466 kts | 242° |
| 2026-04-26 01:33 | 24.56948 | 61.31238 | 37822 ft | 467 kts | 239° |
| 2026-04-26 01:33 | 24.53228 | 61.25360 | 37826 ft | 468 kts | 239° |
| 2026-04-26 01:34 | 24.49498 | 61.19539 | 37818 ft | 467 kts | 239° |
| 2026-04-26 01:34 | 24.45762 | 61.13675 | 37825 ft | 468 kts | 239° |
| 2026-04-26 01:35 | 24.42055 | 61.07837 | 37827 ft | 469 kts | 239° |
| 2026-04-26 01:35 | 24.38313 | 61.01949 | 37827 ft | 470 kts | 239° |
| 2026-04-26 01:36 | 24.34587 | 60.96093 | 37831 ft | 471 kts | 239° |
| 2026-04-26 01:37 | 24.28943 | 60.87237 | 37833 ft | 472 kts | 239° |
| 2026-04-26 01:37 | 24.25196 | 60.81367 | 37834 ft | 472 kts | 239° |
| 2026-04-26 01:38 | 24.21500 | 60.75399 | 37834 ft | 470 kts | 244° |
| 2026-04-26 01:38 | 24.18705 | 60.69030 | 37832 ft | 464 kts | 252° |
| 2026-04-26 01:39 | 24.16254 | 60.62483 | 37827 ft | 464 kts | 252° |
| 2026-04-26 01:39 | 24.13783 | 60.55941 | 37840 ft | 464 kts | 252° |
| 2026-04-26 01:40 | 24.11298 | 60.49435 | 37840 ft | 465 kts | 251° |
| 2026-04-26 01:40 | 24.08787 | 60.42897 | 37836 ft | 465 kts | 252° |
| 2026-04-26 01:41 | 24.06280 | 60.36379 | 37839 ft | 464 kts | 252° |
| 2026-04-26 01:41 | 24.03782 | 60.29892 | 37838 ft | 464 kts | 252° |
| 2026-04-26 01:42 | 24.01267 | 60.23369 | 37825 ft | 464 kts | 252° |
| 2026-04-26 01:42 | 23.98766 | 60.16890 | 37836 ft | 464 kts | 252° |
| 2026-04-26 01:43 | 23.96244 | 60.10368 | 37844 ft | 465 kts | 252° |
| 2026-04-26 01:43 | 23.93720 | 60.03848 | 37841 ft | 465 kts | 252° |
| 2026-04-26 01:44 | 23.91194 | 59.97334 | 37839 ft | 465 kts | 252° |
| 2026-04-26 01:44 | 23.88661 | 59.90810 | 37843 ft | 465 kts | 252° |
| 2026-04-26 01:45 | 23.86127 | 59.84293 | 37844 ft | 465 kts | 252° |
| 2026-04-26 01:45 | 23.83921 | 59.77743 | 37845 ft | 459 kts | 260° |
| 2026-04-26 01:46 | 23.82611 | 59.70951 | 37852 ft | 456 kts | 263° |
| 2026-04-26 01:46 | 23.81375 | 59.64183 | 37844 ft | 456 kts | 263° |
| 2026-04-26 01:47 | 23.80107 | 59.57383 | 37845 ft | 456 kts | 263° |
| 2026-04-26 01:47 | 23.78821 | 59.50592 | 37850 ft | 455 kts | 263° |
| 2026-04-26 01:48 | 23.77541 | 59.43866 | 37846 ft | 455 kts | 263° |
| 2026-04-26 01:48 | 23.76252 | 59.37102 | 37847 ft | 454 kts | 263° |
| 2026-04-26 01:49 | 23.74959 | 59.30335 | 37841 ft | 454 kts | 263° |
| 2026-04-26 01:49 | 23.73666 | 59.23583 | 37845 ft | 454 kts | 263° |
| 2026-04-26 01:50 | 23.72380 | 59.16883 | 37841 ft | 453 kts | 263° |
| 2026-04-26 01:50 | 23.71084 | 59.10145 | 37841 ft | 453 kts | 263° |
| 2026-04-26 01:51 | 23.69784 | 59.03405 | 37843 ft | 453 kts | 263° |
| 2026-04-26 01:51 | 23.68484 | 58.96682 | 37846 ft | 452 kts | 263° |
| 2026-04-26 01:52 | 23.67182 | 58.89967 | 37836 ft | 451 kts | 263° |
| 2026-04-26 01:53 | 23.64720 | 58.77303 | 37839 ft | 450 kts | 263° |
| 2026-04-26 01:53 | 23.63426 | 58.70667 | 37837 ft | 449 kts | 263° |
| 2026-04-26 01:54 | 23.62172 | 58.63986 | 37839 ft | 447 kts | 266° |
| 2026-04-26 01:54 | 23.61575 | 58.57267 | 37843 ft | 444 kts | 270° |
| 2026-04-26 01:55 | 23.61038 | 58.50589 | 37840 ft | 445 kts | 269° |
| 2026-04-26 01:55 | 23.60500 | 58.43858 | 37846 ft | 445 kts | 270° |
| 2026-04-26 01:56 | 23.59984 | 58.37133 | 37822 ft | 445 kts | 270° |
| 2026-04-26 01:56 | 23.59514 | 58.30452 | 37837 ft | 441 kts | 274° |
| 2026-04-26 01:57 | 23.60073 | 58.23853 | 37834 ft | 435 kts | 283° |
| 2026-04-26 01:57 | 23.61631 | 58.17525 | 37834 ft | 431 kts | 291° |
| 2026-04-26 01:58 | 23.63584 | 58.11333 | 37860 ft | 431 kts | 291° |
| 2026-04-26 01:58 | 23.65500 | 58.05156 | 37862 ft | 431 kts | 290° |
| 2026-04-26 01:59 | 23.67397 | 57.98945 | 37876 ft | 431 kts | 290° |
| 2026-04-26 01:59 | 23.69747 | 57.92950 | 37871 ft | 429 kts | 300° |
| 2026-04-26 02:00 | 23.72863 | 57.87447 | 37879 ft | 428 kts | 307° |
| 2026-04-26 02:00 | 23.76545 | 57.82327 | 37893 ft | 428 kts | 308° |
| 2026-04-26 02:01 | 23.80256 | 57.77259 | 37881 ft | 428 kts | 308° |
| 2026-04-26 02:01 | 23.83965 | 57.72142 | 37879 ft | 429 kts | 308° |
| 2026-04-26 02:02 | 23.87662 | 57.67007 | 37874 ft | 429 kts | 308° |
| 2026-04-26 02:02 | 23.91323 | 57.61911 | 37866 ft | 429 kts | 308° |
| 2026-04-26 02:03 | 23.95015 | 57.56770 | 37866 ft | 429 kts | 308° |
| 2026-04-26 02:03 | 23.98682 | 57.51659 | 37875 ft | 429 kts | 308° |
| 2026-04-26 02:04 | 24.02379 | 57.46499 | 37870 ft | 430 kts | 308° |
| 2026-04-26 02:04 | 24.06069 | 57.41334 | 37872 ft | 430 kts | 308° |
| 2026-04-26 02:05 | 24.09724 | 57.36214 | 37361 ft | 431 kts | 308° |
| 2026-04-26 02:05 | 24.11573 | 57.33621 | 36717 ft | 430 kts | 307° |
| 2026-04-26 02:05 | 24.13420 | 57.31029 | 36042 ft | 429 kts | 307° |
| 2026-04-26 02:05 | 24.15253 | 57.28457 | 35496 ft | 426 kts | 307° |
| 2026-04-26 02:06 | 24.17053 | 57.25929 | 34956 ft | 425 kts | 306° |
| 2026-04-26 02:06 | 24.18868 | 57.23379 | 34375 ft | 424 kts | 306° |
| 2026-04-26 02:06 | 24.20680 | 57.20832 | 33827 ft | 423 kts | 306° |
| 2026-04-26 02:06 | 24.22490 | 57.18285 | 33228 ft | 422 kts | 306° |
| 2026-04-26 02:07 | 24.24295 | 57.15742 | 32679 ft | 420 kts | 306° |
| 2026-04-26 02:07 | 24.26083 | 57.13223 | 32151 ft | 418 kts | 305° |
| 2026-04-26 02:07 | 24.27843 | 57.10744 | 31648 ft | 416 kts | 305° |
| 2026-04-26 02:07 | 24.29617 | 57.08244 | 31149 ft | 414 kts | 305° |
| 2026-04-26 02:08 | 24.31387 | 57.05749 | 30657 ft | 412 kts | 305° |
| 2026-04-26 02:08 | 24.33144 | 57.03269 | 30170 ft | 410 kts | 305° |
| 2026-04-26 02:08 | 24.34897 | 57.00796 | 29619 ft | 409 kts | 305° |
| 2026-04-26 02:08 | 24.36638 | 56.98337 | 29069 ft | 407 kts | 305° |
| 2026-04-26 02:09 | 24.38348 | 56.95921 | 28540 ft | 404 kts | 305° |
| 2026-04-26 02:09 | 24.40068 | 56.93496 | 28055 ft | 401 kts | 305° |
| 2026-04-26 02:09 | 24.41787 | 56.91081 | 27555 ft | 398 kts | 305° |
| 2026-04-26 02:09 | 24.43488 | 56.88692 | 27069 ft | 396 kts | 305° |
| 2026-04-26 02:10 | 24.45180 | 56.86314 | 26585 ft | 393 kts | 304° |
| 2026-04-26 02:10 | 24.46856 | 56.83954 | 26111 ft | 391 kts | 304° |
| 2026-04-26 02:10 | 24.48504 | 56.81633 | 25642 ft | 389 kts | 304° |
| 2026-04-26 02:10 | 24.50161 | 56.79297 | 25163 ft | 387 kts | 304° |
| 2026-04-26 02:11 | 24.51810 | 56.76972 | 24693 ft | 385 kts | 304° |
| 2026-04-26 02:11 | 24.53452 | 56.74655 | 24207 ft | 384 kts | 304° |
| 2026-04-26 02:11 | 24.55092 | 56.72340 | 23753 ft | 382 kts | 304° |
| 2026-04-26 02:11 | 24.56723 | 56.70037 | 23258 ft | 381 kts | 304° |
| 2026-04-26 02:12 | 24.58349 | 56.67736 | 22734 ft | 379 kts | 304° |
| 2026-04-26 02:12 | 24.59965 | 56.65451 | 22261 ft | 376 kts | 304° |
| 2026-04-26 02:12 | 24.61547 | 56.63211 | 21822 ft | 374 kts | 304° |
| 2026-04-26 02:12 | 24.63134 | 56.60962 | 21391 ft | 371 kts | 304° |
| 2026-04-26 02:13 | 24.64714 | 56.58723 | 20925 ft | 369 kts | 304° |
| 2026-04-26 02:13 | 24.66285 | 56.56496 | 20475 ft | 367 kts | 304° |
| 2026-04-26 02:13 | 24.67843 | 56.54286 | 20035 ft | 365 kts | 304° |
| 2026-04-26 02:13 | 24.69395 | 56.52085 | 19610 ft | 363 kts | 305° |
| 2026-04-26 02:14 | 24.70943 | 56.49885 | 19162 ft | 362 kts | 305° |
| 2026-04-26 02:14 | 24.72485 | 56.47693 | 18701 ft | 362 kts | 305° |
| 2026-04-26 02:14 | 24.74029 | 56.45497 | 18238 ft | 362 kts | 305° |
| 2026-04-26 02:14 | 24.75554 | 56.43327 | 17737 ft | 362 kts | 305° |
| 2026-04-26 02:15 | 24.77089 | 56.41143 | 17294 ft | 360 kts | 305° |
| 2026-04-26 02:15 | 24.78626 | 56.38955 | 16823 ft | 358 kts | 305° |
| 2026-04-26 02:15 | 24.80140 | 56.36787 | 16367 ft | 356 kts | 304° |
| 2026-04-26 02:15 | 24.81616 | 56.34608 | 15911 ft | 354 kts | 304° |
| 2026-04-26 02:16 | 24.83059 | 56.32455 | 15471 ft | 353 kts | 304° |
| 2026-04-26 02:16 | 24.84514 | 56.30290 | 15038 ft | 351 kts | 304° |
| 2026-04-26 02:16 | 24.85973 | 56.28125 | 14589 ft | 350 kts | 305° |
| 2026-04-26 02:16 | 24.87426 | 56.25965 | 14130 ft | 349 kts | 304° |
| 2026-04-26 02:17 | 24.88734 | 56.23758 | 13704 ft | 347 kts | 299° |
| 2026-04-26 02:17 | 24.89922 | 56.21441 | 13197 ft | 346 kts | 298° |
| 2026-04-26 02:17 | 24.91080 | 56.19125 | 12758 ft | 344 kts | 298° |
| 2026-04-26 02:17 | 24.92227 | 56.16842 | 12540 ft | 335 kts | 298° |
| 2026-04-26 02:18 | 24.93350 | 56.14632 | 12382 ft | 325 kts | 298° |
| 2026-04-26 02:18 | 24.94443 | 56.12500 | 12236 ft | 315 kts | 298° |
| 2026-04-26 02:18 | 24.95506 | 56.10430 | 12104 ft | 305 kts | 298° |
| 2026-04-26 02:18 | 24.96518 | 56.08458 | 12011 ft | 294 kts | 298° |
| 2026-04-26 02:19 | 24.97384 | 56.06499 | 11880 ft | 278 kts | 284° |
| 2026-04-26 02:19 | 24.97660 | 56.04421 | 11616 ft | 271 kts | 274° |
| 2026-04-26 02:19 | 24.97833 | 56.02353 | 11304 ft | 270 kts | 275° |
| 2026-04-26 02:19 | 24.98015 | 56.00290 | 10996 ft | 269 kts | 275° |
| 2026-04-26 02:20 | 24.98202 | 55.98240 | 10702 ft | 268 kts | 275° |
| 2026-04-26 02:20 | 24.98392 | 55.96213 | 10386 ft | 268 kts | 275° |
| 2026-04-26 02:20 | 24.98585 | 55.94172 | 10075 ft | 268 kts | 275° |
| 2026-04-26 02:20 | 24.98780 | 55.92127 | 9742 ft | 268 kts | 275° |
| 2026-04-26 02:21 | 24.98976 | 55.90083 | 9403 ft | 267 kts | 275° |
| 2026-04-26 02:21 | 24.99173 | 55.88040 | 9071 ft | 267 kts | 275° |
| 2026-04-26 02:21 | 24.99366 | 55.86034 | 8757 ft | 266 kts | 276° |
| 2026-04-26 02:21 | 24.99561 | 55.84012 | 8440 ft | 265 kts | 276° |
| 2026-04-26 02:22 | 24.99894 | 55.82042 | 8105 ft | 260 kts | 292° |
| 2026-04-26 02:22 | 25.00803 | 55.80346 | 7829 ft | 254 kts | 302° |
| 2026-04-26 02:22 | 25.01738 | 55.78722 | 7534 ft | 252 kts | 301° |
| 2026-04-26 02:22 | 25.02658 | 55.77080 | 7242 ft | 251 kts | 301° |
| 2026-04-26 02:23 | 25.03577 | 55.75434 | 6948 ft | 251 kts | 301° |
| 2026-04-26 02:23 | 25.04483 | 55.73814 | 6641 ft | 250 kts | 301° |
| 2026-04-26 02:23 | 25.05398 | 55.72177 | 6360 ft | 250 kts | 301° |
| 2026-04-26 02:23 | 25.06314 | 55.70537 | 6045 ft | 251 kts | 301° |
| 2026-04-26 02:24 | 25.07242 | 55.68903 | 5748 ft | 250 kts | 303° |
| 2026-04-26 02:24 | 25.08179 | 55.67286 | 5447 ft | 250 kts | 302° |
| 2026-04-26 02:24 | 25.09099 | 55.65658 | 5134 ft | 250 kts | 302° |
| 2026-04-26 02:24 | 25.10007 | 55.64027 | 4861 ft | 248 kts | 302° |
| 2026-04-26 02:25 | 25.10890 | 55.62431 | 4518 ft | 241 kts | 302° |
| 2026-04-26 02:25 | 25.11735 | 55.60905 | 4193 ft | 224 kts | 302° |
| 2026-04-26 02:25 | 25.12521 | 55.59488 | 3908 ft | 208 kts | 302° |
| 2026-04-26 02:25 | 25.13250 | 55.58173 | 3653 ft | 192 kts | 303° |
| 2026-04-26 02:26 | 25.13936 | 55.56936 | 3456 ft | 186 kts | 303° |
| 2026-04-26 02:26 | 25.14609 | 55.55723 | 3223 ft | 183 kts | 303° |
| 2026-04-26 02:26 | 25.15268 | 55.54533 | 2984 ft | 181 kts | 303° |
| 2026-04-26 02:26 | 25.15917 | 55.53364 | 2761 ft | 180 kts | 303° |
| 2026-04-26 02:27 | 25.16548 | 55.52224 | 2518 ft | 167 kts | 302° |
| 2026-04-26 02:27 | 25.17134 | 55.51163 | 2308 ft | 157 kts | 302° |
| 2026-04-26 02:27 | 25.17698 | 55.50147 | 2126 ft | 154 kts | 303° |
| 2026-04-26 02:27 | 25.18264 | 55.49126 | 1964 ft | 157 kts | 303° |
| 2026-04-26 02:28 | 25.18842 | 55.48081 | 1734 ft | 159 kts | 303° |
| 2026-04-26 02:28 | 25.19409 | 55.47056 | 1532 ft | 152 kts | 303° |
| 2026-04-26 02:28 | 25.19938 | 55.46100 | 1337 ft | 141 kts | 303° |
| 2026-04-26 02:28 | 25.20448 | 55.45180 | 1189 ft | 141 kts | 303° |
| 2026-04-26 02:29 | 25.20964 | 55.44248 | 988 ft | 143 kts | 302° |
| 2026-04-26 02:29 | 25.21482 | 55.43315 | 810 ft | 147 kts | 301° |
| 2026-04-26 02:29 | 25.22023 | 55.42336 | 658 ft | 151 kts | 301° |
| 2026-04-26 02:29 | 25.22566 | 55.41350 | 458 ft | 150 kts | 300° |
| 2026-04-26 02:30 | 25.23105 | 55.40363 | 251 ft | 150 kts | 300° |
| 2026-04-26 02:30 | 25.23646 | 55.39385 | 56 ft | 149 kts | 300° |
| 2026-04-26 02:30 | 25.24151 | 55.38471 | 31 ft | 120 kts | 302° |
| 2026-04-26 02:30 | 25.24491 | 55.37860 | 29 ft | 67 kts | 301° |
| 2026-04-26 02:31 | 25.24681 | 55.37515 | 27 ft | 45 kts | 302° |
| 2026-04-26 02:31 | 25.24777 | 55.37254 | 29 ft | 33 kts | 276° |
| 2026-04-26 02:31 | 25.24783 | 55.37093 | 28 ft | 15 kts | 272° |
| 2026-04-26 02:31 | 25.24794 | 55.36977 | 27 ft | 16 kts | 285° |
| 2026-04-26 02:32 | 25.24839 | 55.36869 | 27 ft | 16 kts | 292° |
| 2026-04-26 02:32 | 25.24868 | 55.36754 | 26 ft | 15 kts | 282° |
| 2026-04-26 02:32 | 25.24899 | 55.36658 | 26 ft | 11 kts | 296° |
| 2026-04-26 02:32 | 25.24902 | 55.36603 | 30 ft | 7 kts | 239° |
| 2026-04-26 02:33 | 25.24862 | 55.36564 | 31 ft | 8 kts | 214° |
| 2026-04-26 02:33 | 25.24811 | 55.36529 | 32 ft | 9 kts | 211° |
| 2026-04-26 02:33 | 25.24778 | 55.36507 | 30 ft | 2 kts | 211° |
| 2026-04-26 02:33 | 25.24768 | 55.36500 | 29 ft | 0 kts | 211° |